Flight Track Log - Related Links

Times and Time Zones

All times are in EDT time to prevent confusion due to time zone crossing. See the DAL268 flight status page for this flight to view local times or setup timezone preferences in your user account.

Time Position Orientation Groundspeed Altitude Reporting Facility
EDT Latitude Longitude Course Direction KTS MPH feet Rate Location/Type
Thu 09:37:34 PM 40.6310 -73.7780 323° Northwest 84 97  Level FlightAware ADS-B
Thu 09:37:54 PM 40.6370 -73.7900 303° West 145 167 391 Level FlightAware ADS-B
Thu 09:38:20 PM 40.6480 -73.8160 299° West 176 203 300 706 Climbing FlightAware ADS-B
Thu 09:38:28 PM 40.6490 -73.8240 279° West 176 203 400 1,000 Climbing FlightAware ADS-B
Thu 09:38:32 PM 40.6490 -73.8270 270° West 174 200 500 1,714 Climbing FlightAware ADS-B
Thu 09:38:56 PM 40.6420 -73.8510 249° West 179 206 1,200 1,500 Climbing FlightAware ADS-B
Thu 09:39:16 PM 40.6320 -73.8690 234° Southwest 190 219 1,600 750 Climbing FlightAware ADS-B
Thu 09:39:36 PM 40.6190 -73.8880 228° Southwest 215 247 1,700 429 Climbing FlightAware ADS-B
Thu 09:39:44 PM 40.6110 -73.8930 205° Southwest 232 267 1,800 1,125 Climbing FlightAware ADS-B
Thu 09:39:52 PM 40.6020 -73.8970 199° South 243 280 2,000 1,000 Climbing FlightAware ADS-B
Thu 09:39:56 PM 40.5970 -73.8970 180° South 248 285 2,000 923 Level FlightAware ADS-B
Thu 09:40:18 PM 40.5760 -73.8900 166° South 270 311 2,400 1,200 Climbing FlightAware ADS-B
Thu 09:40:31 PM 40.5590 -73.8750 146° Southeast 288 331 2,700 2,077 Climbing FlightAware ADS-B
Thu 09:40:44 PM 40.5460 -73.8560 132° Southeast 292 336 3,300 2,571 Climbing FlightAware ADS-B
Thu 09:40:52 PM 40.5410 -73.8440 119° Southeast 295 339 3,600 2,625 Climbing FlightAware ADS-B
Thu 09:41:00 PM 40.5380 -73.8300 106° East 295 339 4,000 3,000 Climbing FlightAware ADS-B
Thu 09:41:08 PM 40.5370 -73.8150 95° East 296 341 4,400 2,800 Climbing FlightAware ADS-B
Thu 09:41:30 PM 40.5410 -73.7750 82° East 302 348 5,400 2,791 Climbing FlightAware ADS-B
Thu 09:41:51 PM 40.5480 -73.7400 75° East 298 343 6,400 2,690 Climbing FlightAware ADS-B
Thu 09:41:59 PM 40.5530 -73.7270 63° Northeast 300 345 6,700 2,500 Climbing FlightAware ADS-B
Thu 09:42:03 PM 40.5570 -73.7210 49° Northeast 302 348 6,900 2,889 Climbing FlightAware ADS-B
Thu 09:42:26 PM 40.5790 -73.6900 47° Northeast 304 350 8,000 2,791 Climbing FlightAware ADS-B
Thu 09:42:46 PM 40.6000 -73.6610 46° Northeast 307 353 8,900 2,550 Climbing FlightAware ADS-B
Thu 09:43:06 PM 40.6190 -73.6340 47° Northeast 311 358 9,700 1,821 Climbing FlightAware ADS-B
Thu 09:43:42 PM 40.6560 -73.5850 45° Northeast 334 384 10,600 1,375 Climbing FlightAware ADS-B
Thu 09:43:54 PM 40.6700 -73.5670 44° Northeast 346 398 10,800 563 Climbing FlightAware ADS-B
Thu 09:44:14 PM 40.6940 -73.5360 44° Northeast 375 432 10,900 324 Climbing FlightAware ADS-B
Thu 09:44:31 PM 40.7150 -73.5100 43° Northeast 398 458 11,000 1,171 Climbing FlightAware ADS-B
Thu 09:44:55 PM 40.7560 -73.4800 29° Northeast 411 473 11,700 2,316 Climbing FlightAware ADS-B
Thu 09:45:28 PM 40.8150 -73.4480 22° Northeast 415 478 13,200 2,559 Climbing FlightAware ADS-B
Thu 09:46:03 PM 40.8760 -73.4150 22° Northeast 419 482 14,600 2,282 Climbing FlightAware ADS-B
Thu 09:46:39 PM 40.9430 -73.3790 22° Northeast 426 490 15,900 1,913 Climbing FlightAware ADS-B
Thu 09:47:12 PM 41.0020 -73.3470 22° Northeast 435 501 16,800 1,652 Climbing FlightAware ADS-B
Thu 09:47:48 PM 41.0710 -73.3090 23° Northeast 439 505 17,800 1,833 Climbing FlightAware ADS-B
Thu 09:48:24 PM 41.1410 -73.2710 22° Northeast 444 511 19,000 1,941 Climbing FlightAware ADS-B
Thu 09:48:56 PM 41.2000 -73.2380 23° Northeast 449 517 20,000 1,929 Climbing FlightAware ADS-B
Thu 09:49:20 PM 41.2450 -73.2050 29° Northeast 452 520 20,800 1,909 Climbing FlightAware ADS-B
Thu 09:49:40 PM 41.2760 -73.1680 42° Northeast 455 524 21,400 1,684 Climbing FlightAware ADS-B
Thu 09:50:17 PM 41.3260 -73.0850 51° Northeast 461 531 22,400 1,565 Climbing FlightAware ADS-B
Thu 09:50:49 PM 41.3680 -73.0160 51° Northeast 464 534 23,200 1,433 Climbing FlightAware ADS-B
Thu 09:51:24 PM 41.4120 -72.9410 52° Northeast 469 540 24,000 1,268 Climbing FlightAware ADS-B
Thu 09:52:00 PM 41.4600 -72.8580 52° Northeast 476 548 24,700 1,130 Climbing FlightAware ADS-B
Thu 09:52:33 PM 41.5070 -72.7830 50° Northeast 484 557 25,300 1,147 Climbing FlightAware ADS-B
Thu 09:53:08 PM 41.5610 -72.7020 48° Northeast 489 563 26,000 1,268 Climbing FlightAware ADS-B
Thu 09:53:44 PM 41.6150 -72.6190 49° Northeast 493 567 26,800 1,233 Climbing FlightAware ADS-B
Thu 09:54:21 PM 41.6710 -72.5310 50° Northeast 496 571 27,500 1,457 Climbing FlightAware ADS-B
Thu 09:54:54 PM 41.7220 -72.4560 48° Northeast 491 565 28,500 1,739 Climbing FlightAware ADS-B
Thu 09:55:30 PM 41.7760 -72.3740 49° Northeast 488 562 29,500 1,583 Climbing FlightAware ADS-B
Thu 09:56:06 PM 41.8290 -72.2900 50° Northeast 482 555 30,400 1,268 Climbing FlightAware ADS-B
Thu 09:56:41 PM 41.8800 -72.2140 48° Northeast 481 554 31,000 474 Climbing FlightAware ADS-B
Thu 09:57:22 PM 41.9400 -72.1210 49° Northeast 479 551 31,000  Level FlightAware ADS-B
Thu 09:57:57 PM 41.9900 -72.0430 49° Northeast 476 548 31,000  Level FlightAware ADS-B
Thu 09:58:33 PM 42.0430 -71.9600 49° Northeast 475 547 31,000  Level FlightAware ADS-B
Thu 09:59:06 PM 42.0900 -71.8890 48° Northeast 475 547 31,000  Level FlightAware ADS-B
Thu 09:59:41 PM 42.1400 -71.8110 49° Northeast 475 547 31,000  Level FlightAware ADS-B
Thu 10:00:18 PM 42.1940 -71.7260 49° Northeast 475 547 31,000  Level FlightAware ADS-B
Thu 10:00:50 PM 42.2390 -71.6560 49° Northeast 474 545 31,000  Level FlightAware ADS-B
Thu 10:01:27 PM 42.2920 -71.5730 49° Northeast 475 547 31,000  Level FlightAware ADS-B
Thu 10:02:02 PM 42.3420 -71.4940 49° Northeast 475 547 31,000  Level FlightAware ADS-B
Thu 10:02:30 PM 42.3830 -71.4310 49° Northeast 475 547 31,000  Level FlightAware ADS-B
Thu 10:03:07 PM 42.4350 -71.3480 50° Northeast 476 548 31,000  Level FlightAware ADS-B
Thu 10:03:37 PM 42.4790 -71.2770 50° Northeast 475 547 31,000  Level FlightAware ADS-B
Thu 10:04:14 PM 42.5310 -71.1960 49° Northeast 473 544 31,000  Level FlightAware ADS-B
Thu 10:04:46 PM 42.5740 -71.1260 50° Northeast 473 544 31,000  Level FlightAware ADS-B
Thu 10:05:26 PM 42.6320 -71.0330 50° Northeast 474 545 31,000  Level FlightAware ADS-B
Thu 10:06:03 PM 42.6850 -70.9490 49° Northeast 474 545 31,000  Level FlightAware ADS-B
Thu 10:06:34 PM 42.7300 -70.8780 49° Northeast 474 545 31,000  Level FlightAware ADS-B
Thu 10:07:11 PM 42.7820 -70.7940 50° Northeast 475 547 31,000  Level FlightAware ADS-B
Thu 10:07:44 PM 42.8280 -70.7190 50° Northeast 475 547 31,000  Level FlightAware ADS-B
Thu 10:08:20 PM 42.8780 -70.6390 50° Northeast 475 547 31,000  Level FlightAware ADS-B
Thu 10:08:56 PM 42.9310 -70.5510 51° Northeast 476 548 31,000  Level FlightAware ADS-B
Thu 10:09:32 PM 42.9810 -70.4710 49° Northeast 476 548 31,000  Level FlightAware ADS-B
Thu 10:10:07 PM 43.0310 -70.3900 50° Northeast 475 547 31,000  Level FlightAware ADS-B
Thu 10:10:39 PM 43.0760 -70.3140 51° Northeast 475 547 31,000  Level FlightAware ADS-B
Thu 10:11:12 PM 43.1210 -70.2430 49° Northeast 474 545 31,000  Level FlightAware ADS-B
Thu 10:11:49 PM 43.1720 -70.1570 51° Northeast 473 544 31,000  Level FlightAware ADS-B
Thu 10:12:23 PM 43.2200 -70.0790 50° Northeast 469 540 31,000  Level FlightAware ADS-B
Thu 10:13:10 PM 43.2840 -69.9730 50° Northeast 469 540 31,000  Level FlightAware ADS-B
Thu 10:13:48 PM 43.3280 -69.8980 51° Northeast 469 540 31,000  Level FlightAware ADS-B
Thu 10:14:23 PM 43.3880 -69.8010 50° Northeast 469 540 31,000  Level FlightAware ADS-B
Thu 10:14:58 PM 43.4320 -69.7270 51° Northeast 469 540 31,000  Level FlightAware ADS-B
Thu 10:15:38 PM 43.4920 -69.6270 50° Northeast 469 540 31,000  Level FlightAware ADS-B
Thu 10:16:22 PM 43.5500 -69.5280 51° Northeast 469 540 31,000  Level FlightAware ADS-B
Thu 10:16:57 PM 43.6020 -69.4420 50° Northeast 470 541 31,000  Level FlightAware ADS-B
Thu 10:17:37 PM 43.6520 -69.3570 51° Northeast 472 543 31,000  Level FlightAware ADS-B
Thu 10:18:12 PM 43.7060 -69.2640 51° Northeast 473 544 31,000  Level FlightAware ADS-B
Thu 10:18:52 PM 43.7600 -69.1740 50° Northeast 474 545 31,000  Level FlightAware ADS-B
Thu 10:19:22 PM 43.7990 -69.1070 51° Northeast 474 545 31,000  Level FlightAware ADS-B
Thu 10:20:02 PM 43.8450 -69.0270 51° Northeast 474 545 31,000  Level FlightAware ADS-B
Thu 10:20:38 PM 43.8880 -68.9540 51° Northeast 474 545 31,000  Level FlightAware ADS-B
Thu 10:21:15 PM 43.9310 -68.8800 51° Northeast 474 545 31,000  Level FlightAware ADS-B
Thu 10:21:53 PM 44.0170 -68.7330 51° Northeast 483 556 31,000  Level FlightAware ADS-B
Thu 10:22:25 PM 44.0600 -68.6580 51° Northeast 484 557 31,000  Level FlightAware ADS-B
Thu 10:23:01 PM 44.1100 -68.5700 52° Northeast 484 557 31,000  Level FlightAware ADS-B
Thu 10:23:37 PM 44.1610 -68.4820 51° Northeast 485 558 31,000  Level FlightAware ADS-B
Thu 10:24:15 PM 44.2160 -68.3870 51° Northeast 485 558 31,000  Level FlightAware ADS-B
Thu 10:24:47 PM 44.2610 -68.3060 52° Northeast 485 558 31,000  Level FlightAware ADS-B
Thu 10:25:23 PM 44.3110 -68.2180 52° Northeast 486 559 31,000  Level FlightAware ADS-B
Thu 10:25:59 PM 44.3620 -68.1290 51° Northeast 487 560 31,000  Level FlightAware ADS-B
Thu 10:26:31 PM 44.4060 -68.0520 51° Northeast 487 560 31,000  Level FlightAware ADS-B
Thu 10:27:07 PM 44.4560 -67.9630 52° Northeast 487 560 31,000  Level FlightAware ADS-B
Thu 10:27:43 PM 44.5060 -67.8740 52° Northeast 487 560 31,000  Level FlightAware ADS-B
Thu 10:28:19 PM 44.5570 -67.7820 52° Northeast 488 562 31,000  Level FlightAware ADS-B
Thu 10:28:51 PM 44.6020 -67.7020 52° Northeast 490 564 31,000  Level FlightAware ADS-B
Thu 10:29:29 PM 44.6540 -67.6090 52° Northeast 491 565 31,000  Level FlightAware ADS-B
Thu 10:30:01 PM 44.6980 -67.5280 53° Northeast 492 566 31,000  Level FlightAware ADS-B
Thu 10:30:37 PM 44.7500 -67.4350 52° Northeast 493 567 31,000  Level FlightAware ADS-B
Thu 10:31:11 PM 44.7970 -67.3490 52° Northeast 493 567 31,000  Level FlightAware ADS-B
Thu 10:31:53 PM 44.8540 -67.2470 52° Northeast 495 570 31,000  Level FlightAware ADS-B
Thu 10:32:28 PM 44.9040 -67.1590 51° Northeast 494 568 31,000  Level FlightAware ADS-B
Thu 10:33:03 PM 44.9600 -67.0750 47° Northeast 486 559 31,000  Level FlightAware ADS-B
Thu 10:33:38 PM 45.0160 -66.9980 44° Northeast 486 559 31,000  Level FlightAware ADS-B
Thu 10:34:08 PM 45.0650 -66.9310 44° Northeast 486 559 31,000  Level FlightAware ADS-B
Thu 10:34:47 PM 45.1280 -66.8400 46° Northeast 486 559 31,000  Level FlightAware ADS-B
Thu 10:35:23 PM 45.1860 -66.7580 45° Northeast 487 560 31,000  Level FlightAware ADS-B
Thu 10:35:58 PM 45.2430 -66.6780 45° Northeast 487 560 31,000  Level FlightAware ADS-B
Thu 10:36:33 PM 45.2990 -66.5980 45° Northeast 485 558 31,000  Level FlightAware ADS-B
Thu 10:37:13 PM 45.3610 -66.5090 45° Northeast 483 556 31,000  Level FlightAware ADS-B
Thu 10:37:48 PM 45.4180 -66.4290 45° Northeast 483 556 31,000  Level FlightAware ADS-B
Thu 10:38:28 PM 45.4810 -66.3380 45° Northeast 483 556 31,000  Level FlightAware ADS-B
Thu 10:39:03 PM 45.5370 -66.2580 45° Northeast 487 560 31,000  Level FlightAware ADS-B
Thu 10:39:38 PM 45.5920 -66.1780 45° Northeast 486 559 31,000  Level FlightAware ADS-B
Thu 10:40:08 PM 45.6400 -66.1090 45° Northeast 485 558 31,000  Level FlightAware ADS-B
Thu 10:40:28 PM 45.6720 -66.0640 44° Northeast 485 558 31,000  Level FlightAware ADS-B
Thu 10:41:08 PM 45.7340 -65.9720 46° Northeast 486 559 31,000  Level FlightAware ADS-B
Thu 10:41:38 PM 45.7820 -65.9010 46° Northeast 486 559 31,000  Level FlightAware ADS-B
Thu 10:42:23 PM 45.8500 -65.8020 45° Northeast 485 558 31,000  Level FlightAware ADS-B
Thu 10:42:52 PM 45.8970 -65.7330 46° Northeast 485 558 31,000  Level FlightAware ADS-B
Thu 10:43:02 PM 45.9150 -65.7070 45° Northeast 485 558 31,000  Level FlightAware ADS-B
Thu 10:43:34 PM 45.9630 -65.6360 46° Northeast 485 558 31,000  Level FlightAware ADS-B
Thu 10:43:42 PM 45.9770 -65.6150 46° Northeast 485 558 31,000  Level FlightAware ADS-B
Thu 10:44:08 PM 46.0170 -65.5550 46° Northeast 485 558 31,000  Level FlightAware ADS-B
Thu 10:44:12 PM 46.0250 -65.5430 46° Northeast 485 558 31,000  Level FlightAware ADS-B
Thu 10:44:48 PM 46.0800 -65.4620 46° Northeast 485 558 31,000  Level FlightAware ADS-B
Thu 10:45:27 PM 46.1310 -65.3850 46° Northeast 485 558 31,000  Level FlightAware ADS-B
Thu 10:46:03 PM 46.1790 -65.3140 46° Northeast 485 558 31,000  Level FlightAware ADS-B
Thu 10:46:39 PM 46.2270 -65.2420 46° Northeast 485 558 31,000  Level FlightAware ADS-B
Thu 10:47:15 PM 46.2740 -65.1710 46° Northeast 485 558 31,000  Level FlightAware ADS-B
Thu 10:47:51 PM 46.3220 -65.0990 46° Northeast 485 558 31,000  Level FlightAware ADS-B
Thu 10:48:28 PM 46.3710 -65.0260 46° Northeast 485 558 31,000  Level FlightAware ADS-B
Thu 10:49:04 PM 46.4190 -64.9540 46° Northeast 485 558 31,000  Level FlightAware ADS-B
Thu 10:49:41 PM 46.4680 -64.8800 46° Northeast 485 558 31,000  Level FlightAware ADS-B
Thu 10:50:17 PM 46.5150 -64.8090 46° Northeast 485 558 31,000  Level FlightAware ADS-B
Thu 10:50:53 PM 46.5630 -64.7370 46° Northeast 485 558 31,000  Level FlightAware ADS-B
Thu 10:51:29 PM 46.6110 -64.6650 46° Northeast 485 558 31,000  Level FlightAware ADS-B
Thu 10:52:05 PM 46.6590 -64.5930 46° Northeast 485 558 31,000  Level FlightAware ADS-B
Thu 10:52:41 PM 46.7060 -64.5210 46° Northeast 485 558 31,000  Level FlightAware ADS-B
Thu 10:53:17 PM 46.7540 -64.4490 46° Northeast 485 558 31,000  Level FlightAware ADS-B
Thu 10:53:54 PM 46.8030 -64.3750 46° Northeast 485 558 31,000  Level FlightAware ADS-B
Thu 10:54:30 PM 46.8510 -64.3030 46° Northeast 485 558 31,000  Level FlightAware ADS-B
Thu 10:55:06 PM 47.0333 -64.0000 46° Northeast 490 564 31,000  Level Gander Center
Thu 10:56:06 PM 47.1167 -63.8333 54° Northeast 500 575 31,000  Level Gander Center
Thu 10:57:06 PM 47.2167 -63.7000 42° Northeast 500 575 31,000  Level Gander Center
Thu 10:58:06 PM 47.3000 -63.5167 56° Northeast 490 564 31,000  Level Gander Center
Thu 10:59:06 PM 47.4000 -63.4000 38° Northeast 500 575 31,000  Level Gander Center
Thu 11:00:06 PM 47.5000 -63.2333 48° Northeast 490 564 31,000  Level Gander Center
Thu 11:01:06 PM 47.5833 -63.0833 50° Northeast 500 575 31,000  Level Gander Center
Thu 11:02:07 PM 47.6833 -62.9333 45° Northeast 490 564 31,000  Level Moncton Center
Thu 11:03:07 PM 47.7833 -62.7833 45° Northeast 500 575 31,000  Level Moncton Center
Thu 11:04:07 PM 47.8667 -62.6333 50° Northeast 500 575 31,000  Level Moncton Center
Thu 11:05:07 PM 47.9667 -62.4667 48° Northeast 510 587 31,000  Level Moncton Center
Thu 11:06:07 PM 48.0667 -62.3000 48° Northeast 510 587 31,000  Level Moncton Center
Thu 11:07:07 PM 48.1500 -62.1333 53° Northeast 510 587 31,000 -50 Level Moncton Center
Thu 11:08:07 PM 48.2500 -61.9833 45° Northeast 510 587 30,900  Descending Moncton Center
Thu 11:09:07 PM 48.3333 -61.8333 50° Northeast 510 587 31,000 50 Climbing Moncton Center
Thu 11:10:07 PM 48.4333 -61.6667 48° Northeast 500 575 31,000  Level Moncton Center
Thu 11:11:07 PM 48.5333 -61.5167 45° Northeast 500 575 31,000  Level Moncton Center
Thu 11:12:07 PM 48.6333 -61.3333 50° Northeast 500 575 31,000  Level Moncton Center
Thu 11:13:07 PM 48.7167 -61.1667 53° Northeast 510 587 31,000  Level Moncton Center
Thu 11:14:07 PM 48.8000 -61.0167 50° Northeast 510 587 31,000  Level Moncton Center
Thu 11:15:07 PM 48.9000 -60.8500 48° Northeast 510 587 31,000  Level Moncton Center
Thu 11:16:07 PM 49.0000 -60.7000 45° Northeast 520 598 31,000  Level Moncton Center
Thu 11:17:07 PM 49.0833 -60.5167 55° Northeast 510 587 31,000  Level Moncton Center
Thu 11:18:07 PM 49.1833 -60.3500 47° Northeast 510 587 31,000  Level Moncton Center
Thu 11:19:07 PM 49.2833 -60.1833 47° Northeast 520 598 31,000  Level Moncton Center
Thu 11:20:07 PM 49.3833 -60.0167 47° Northeast 520 598 31,000  Level Moncton Center
Thu 11:21:07 PM 49.4500 -59.8667 56° Northeast 520 598 31,000  Level Moncton Center
Thu 11:22:07 PM 49.5500 -59.6667 52° Northeast 520 598 31,000  Level Moncton Center
Thu 11:23:07 PM 49.6333 -59.5167 49° Northeast 520 598 31,000 121 Level Moncton Center
Thu 11:28:45 PM 50.1740 -58.5380 49° Northeast 528 608 31,800 238 Climbing FlightAware ADS-B
Thu 11:29:25 PM 50.2270 -58.4130 56° Northeast 530 610 32,500 900 Climbing FlightAware ADS-B
Thu 11:30:05 PM 50.2830 -58.2830 56° Northeast 530 610 33,000 400 Climbing FlightAware ADS-B
Thu 11:30:40 PM 50.3300 -58.1720 56° Northeast 530 610 33,000  Level FlightAware ADS-B
Thu 11:31:15 PM 50.3750 -58.0700 55° Northeast 529 609 33,000  Level FlightAware ADS-B
Thu 11:31:55 PM 50.4310 -57.9370 57° Northeast 528 608 33,000  Level FlightAware ADS-B
Thu 11:32:38 PM 50.4780 -57.8280 56° Northeast 528 608 33,000  Level FlightAware ADS-B
Thu 11:33:14 PM 50.5200 -57.7300 56° Northeast 528 608 33,000  Level FlightAware ADS-B
Thu 11:33:50 PM 50.5620 -57.6330 56° Northeast 528 608 33,000  Level FlightAware ADS-B
Thu 11:34:27 PM 50.6050 -57.5320 56° Northeast 528 608 33,000  Level FlightAware ADS-B
Thu 11:35:03 PM 50.6470 -57.4350 56° Northeast 528 608 33,000  Level FlightAware ADS-B
Thu 11:35:40 PM 50.6890 -57.3340 57° Northeast 528 608 33,000  Level FlightAware ADS-B
Thu 11:36:16 PM 50.7310 -57.2360 56° Northeast 528 608 33,000  Level FlightAware ADS-B
Thu 11:36:52 PM 50.7730 -57.1380 56° Northeast 528 608 33,000  Level FlightAware ADS-B
Thu 11:37:29 PM 50.8160 -57.0370 56° Northeast 528 608 33,000  Level FlightAware ADS-B
Thu 11:38:05 PM 50.8580 -56.9390 56° Northeast 528 608 33,000  Level FlightAware ADS-B
Thu 11:38:41 PM 50.9000 -56.8410 56° Northeast 528 608 33,000  Level FlightAware ADS-B
Thu 11:39:17 PM 50.9410 -56.7430 56° Northeast 528 608 33,000  Level FlightAware ADS-B
Thu 11:39:53 PM 50.9830 -56.6440 56° Northeast 528 608 33,000  Level FlightAware ADS-B
Thu 11:40:27 PM 51.0230 -56.5510 56° Northeast 528 608 33,000  Level FlightAware ADS-B
Thu 11:41:04 PM 51.0660 -56.4500 56° Northeast 528 608 33,000  Level FlightAware ADS-B
Thu 11:41:40 PM 51.1070 -56.3510 57° Northeast 528 608 33,000  Level FlightAware ADS-B
Thu 11:43:06 PM 51.3167 -55.6833 57° Northeast 540 621 33,000  Level Gander Center
Thu 11:44:06 PM 51.4000 -55.4833 56° Northeast 540 621 33,000  Level Gander Center
Thu 11:45:06 PM 51.4833 -55.2667 58° Northeast 550 633 33,000  Level Gander Center
Thu 11:46:06 PM 51.5667 -55.0667 56° Northeast 550 633 33,000  Level Gander Center
Thu 11:47:06 PM 51.6500 -54.8333 60° Northeast 550 633 33,000  Level Gander Center
Thu 11:48:06 PM 51.7167 -54.6333 62° Northeast 550 633 33,000  Level Gander Center
Thu 11:49:06 PM 51.8167 -54.4333 51° Northeast 560 644 33,000  Level Gander Center
Thu 11:50:06 PM 51.8833 -54.2000 65° Northeast 560 644 33,000  Level Gander Center
Thu 11:51:06 PM 51.9667 -54.0000 56° Northeast 560 644 33,000  Level Gander Center
Thu 11:52:06 PM 52.0500 -53.7667 60° Northeast 570 656 33,000  Level Gander Center
Thu 11:53:06 PM 52.1167 -53.5333 65° Northeast 560 644 33,000  Level Gander Center
Thu 11:54:06 PM 52.2167 -53.3333 51° Northeast 570 656 33,000  Level Gander Center
Thu 11:55:06 PM 52.2667 -53.1000 71° East 570 656 33,000  Level Gander Center
Thu 11:56:06 PM 52.3333 -52.8500 66° East 580 667 33,000  Level Gander Center
Thu 11:57:06 PM 52.4000 -52.5833 68° East 580 667 33,000  Level Gander Center
Thu 11:58:06 PM 52.4500 -52.3500 71° East 580 667 33,000  Level Gander Center
Thu 11:59:06 PM 52.5000 -52.1167 71° East 580 667 33,000  Level Gander Center
Fri 12:00:06 AM 52.5667 -51.8833 65° Northeast 580 667 33,000  Level Gander Center
Fri 12:01:06 AM 52.6000 -51.6333 78° East 570 656 33,000  Level Gander Center
Fri 12:02:06 AM 52.6500 -51.4000 70° East 570 656 33,000  Level Gander Center
Fri 12:04:00 AM 52.7552 -50.9882 67° East  Level FlightAware Approximate
Fri 12:05:23 AM 52.8333 -50.6000 67° East 320 368 33,000  Level Gander Center
Fri 12:06:23 AM 52.9000 -50.3333 67° East 500 575 33,000  Level Gander Center
Fri 12:07:23 AM 52.9333 -50.1000 77° East 540 621 33,000  Level Gander Center
Fri 12:09:00 AM 53.0351 -49.7529 77° East  Level FlightAware Approximate
Fri 12:16:00 AM 53.2572 -48.0843 77° East  Level FlightAware Approximate
Fri 12:17:00 AM 53.2870 -47.8445 78° East  Level FlightAware Approximate
Fri 12:18:00 AM 53.3163 -47.6044 78° East  Level FlightAware Approximate
Fri 12:19:00 AM 53.3452 -47.3640 79° East  Level FlightAware Approximate
Fri 12:20:00 AM 53.3736 -47.1233 79° East  Level FlightAware Approximate
Fri 12:21:00 AM 53.4015 -46.8822 79° East  Level FlightAware Approximate
Fri 12:22:00 AM 53.4289 -46.6408 79° East  Level FlightAware Approximate
Fri 12:23:00 AM 53.4558 -46.3991 79° East  Level FlightAware Approximate
Fri 12:24:00 AM 53.4826 -46.1573 79° East  Level FlightAware Approximate
Fri 12:25:00 AM 53.5092 -45.9152 79° East  Level FlightAware Approximate
Fri 12:26:00 AM 53.5353 -45.6728 80° East  Level FlightAware Approximate
Fri 12:27:00 AM 53.5609 -45.4301 80° East  Level FlightAware Approximate
Fri 12:28:00 AM 53.5860 -45.1871 80° East  Level FlightAware Approximate
Fri 12:29:00 AM 53.6107 -44.9439 80° East  Level FlightAware Approximate
Fri 12:30:00 AM 53.6348 -44.7003 80° East  Level FlightAware Approximate
Fri 12:31:00 AM 53.6585 -44.4565 81° East  Level FlightAware Approximate
Fri 12:32:00 AM 53.6816 -44.2124 81° East  Level FlightAware Approximate
Fri 12:33:00 AM 53.7043 -43.9680 81° East  Level FlightAware Approximate
Fri 12:34:00 AM 53.7264 -43.7234 81° East  Level FlightAware Approximate
Fri 12:35:00 AM 53.7481 -43.4785 81° East  Level FlightAware Approximate
Fri 12:36:00 AM 53.7692 -43.2334 82° East  Level FlightAware Approximate
Fri 12:37:00 AM 53.7899 -42.9881 82° East  Level FlightAware Approximate
Fri 12:38:00 AM 53.8101 -42.7425 82° East  Level FlightAware Approximate
Fri 12:39:00 AM 53.8297 -42.4966 82° East  Level FlightAware Approximate
Fri 12:40:00 AM 53.8489 -42.2505 82° East  Level FlightAware Approximate
Fri 12:41:00 AM 53.8675 -42.0042 83° East  Level FlightAware Approximate
Fri 12:42:00 AM 53.8857 -41.7577 83° East  Level FlightAware Approximate
Fri 12:43:00 AM 53.9033 -41.5110 83° East  Level FlightAware Approximate
Fri 12:44:00 AM 53.9204 -41.2641 83° East  Level FlightAware Approximate
Fri 12:45:00 AM 53.9370 -41.0170 83° East  Level FlightAware Approximate
Fri 12:46:00 AM 53.9532 -40.7697 84° East  Level FlightAware Approximate
Fri 12:47:00 AM 53.9687 -40.5227 84° East  Level FlightAware Approximate
Fri 12:48:00 AM 53.9838 -40.2755 84° East  Level FlightAware Approximate
Fri 12:49:00 AM 53.9984 -40.0282 84° East  Level FlightAware Approximate
Fri 12:50:00 AM 54.0307 -39.7860 76° East  Level FlightAware Approximate
Fri 12:51:00 AM 54.0650 -39.5440 76° East  Level FlightAware Approximate
Fri 12:52:00 AM 54.0987 -39.3016 77° East  Level FlightAware Approximate
Fri 12:53:00 AM 54.1320 -39.0588 77° East  Level FlightAware Approximate
Fri 12:54:00 AM 54.1648 -38.8157 77° East  Level FlightAware Approximate
Fri 12:55:00 AM 54.1970 -38.5721 77° East  Level FlightAware Approximate
Fri 12:56:00 AM 54.2288 -38.3282 77° East  Level FlightAware Approximate
Fri 12:57:00 AM 54.2601 -38.0839 78° East  Level FlightAware Approximate
Fri 12:58:00 AM 54.2909 -37.8393 78° East  Level FlightAware Approximate
Fri 12:59:00 AM 54.3212 -37.5942 78° East  Level FlightAware Approximate
Fri 01:00:00 AM 54.3511 -37.3489 78° East  Level FlightAware Approximate
Fri 01:01:00 AM 54.3804 -37.1031 78° East  Level FlightAware Approximate
Fri 01:02:00 AM 54.4092 -36.8571 79° East  Level FlightAware Approximate
Fri 01:03:00 AM 54.4375 -36.6106 79° East  Level FlightAware Approximate
Fri 01:04:00 AM 54.4653 -36.3639 79° East  Level FlightAware Approximate
Fri 01:05:00 AM 54.4926 -36.1168 79° East  Level FlightAware Approximate
Fri 01:06:00 AM 54.5194 -35.8694 79° East  Level FlightAware Approximate
Fri 01:07:00 AM 54.5457 -35.6216 80° East  Level FlightAware Approximate
Fri 01:08:00 AM 54.5715 -35.3736 80° East  Level FlightAware Approximate
Fri 01:09:00 AM 54.5968 -35.1252 80° East  Level FlightAware Approximate
Fri 01:10:00 AM 54.6215 -34.8765 80° East  Level FlightAware Approximate
Fri 01:11:00 AM 54.6458 -34.6275 80° East  Level FlightAware Approximate
Fri 01:12:00 AM 54.6696 -34.3783 81° East  Level FlightAware Approximate
Fri 01:13:00 AM 54.6928 -34.1287 81° East  Level FlightAware Approximate
Fri 01:14:00 AM 54.7155 -33.8789 81° East  Level FlightAware Approximate
Fri 01:15:00 AM 54.7377 -33.6287 81° East  Level FlightAware Approximate
Fri 01:16:00 AM 54.7594 -33.3783 81° East  Level FlightAware Approximate
Fri 01:17:00 AM 54.7806 -33.1277 82° East  Level FlightAware Approximate
Fri 01:18:00 AM 54.8013 -32.8768 82° East  Level FlightAware Approximate
Fri 01:19:00 AM 54.8214 -32.6256 82° East  Level FlightAware Approximate
Fri 01:20:00 AM 54.8410 -32.3742 82° East  Level FlightAware Approximate
Fri 01:21:00 AM 54.8602 -32.1225 82° East  Level FlightAware Approximate
Fri 01:22:00 AM 54.8787 -31.8706 83° East  Level FlightAware Approximate
Fri 01:23:00 AM 54.8968 -31.6185 83° East  Level FlightAware Approximate
Fri 01:24:00 AM 54.9143 -31.3666 83° East  Level FlightAware Approximate
Fri 01:25:00 AM 54.9313 -31.1145 83° East  Level FlightAware Approximate
Fri 01:26:00 AM 54.9478 -30.8622 83° East  Level FlightAware Approximate
Fri 01:27:00 AM 54.9637 -30.6096 84° East  Level FlightAware Approximate
Fri 01:28:00 AM 54.9791 -30.3569 84° East  Level FlightAware Approximate
Fri 01:29:00 AM 54.9940 -30.1040 84° East  Level FlightAware Approximate
Fri 01:30:00 AM 55.0060 -29.8505 86° East  Level FlightAware Approximate
Fri 01:31:00 AM 55.0159 -29.5967 86° East  Level FlightAware Approximate
Fri 01:32:00 AM 55.0251 -29.3428 86° East  Level FlightAware Approximate
Fri 01:33:00 AM 55.0339 -29.0887 86° East  Level FlightAware Approximate
Fri 01:34:00 AM 55.0421 -28.8345 87° East  Level FlightAware Approximate
Fri 01:35:00 AM 55.0498 -28.5802 87° East  Level FlightAware Approximate
Fri 01:36:00 AM 55.0570 -28.3259 87° East  Level FlightAware Approximate
Fri 01:37:00 AM 55.0636 -28.0714 87° East  Level FlightAware Approximate
Fri 01:38:00 AM 55.0698 -27.8169 87° East  Level FlightAware Approximate
Fri 01:39:00 AM 55.0753 -27.5623 88° East  Level FlightAware Approximate
Fri 01:40:00 AM 55.0804 -27.3076 88° East  Level FlightAware Approximate
Fri 01:41:00 AM 55.0849 -27.0529 88° East  Level FlightAware Approximate
Fri 01:42:00 AM 55.0889 -26.7981 88° East  Level FlightAware Approximate
Fri 01:43:00 AM 55.0924 -26.5432 89° East  Level FlightAware Approximate
Fri 01:44:00 AM 55.0953 -26.2883 89° East  Level FlightAware Approximate
Fri 01:45:00 AM 55.0977 -26.0334 89° East  Level FlightAware Approximate
Fri 01:46:00 AM 55.0995 -25.7785 89° East  Level FlightAware Approximate
Fri 01:47:00 AM 55.1009 -25.5235 89° East  Level FlightAware Approximate
Fri 01:48:00 AM 55.1017 -25.2685 90° East  Level FlightAware Approximate
Fri 01:49:00 AM 55.1021 -25.0135 90° East  Level FlightAware Approximate
Fri 01:50:00 AM 55.1019 -24.7585 90° East  Level FlightAware Approximate
Fri 01:51:00 AM 55.1011 -24.5036 90° East  Level FlightAware Approximate
Fri 01:52:00 AM 55.0998 -24.2486 90° East  Level FlightAware Approximate
Fri 01:53:00 AM 55.0980 -23.9936 91° East  Level FlightAware Approximate
Fri 01:54:00 AM 55.0957 -23.7387 91° East  Level FlightAware Approximate
Fri 01:55:00 AM 55.0928 -23.4838 91° East  Level FlightAware Approximate
Fri 01:56:00 AM 55.0894 -23.2290 91° East  Level FlightAware Approximate
Fri 01:57:00 AM 55.0855 -22.9742 91° East  Level FlightAware Approximate
Fri 01:58:00 AM 55.0810 -22.7194 92° East  Level FlightAware Approximate
Fri 01:59:00 AM 55.0760 -22.4647 92° East  Level FlightAware Approximate
Fri 02:00:00 AM 55.0705 -22.2101 92° East  Level FlightAware Approximate
Fri 02:01:00 AM 55.0644 -21.9556 92° East  Level FlightAware Approximate
Fri 02:02:00 AM 55.0578 -21.7011 92° East  Level FlightAware Approximate
Fri 02:03:00 AM 55.0507 -21.4467 93° East  Level FlightAware Approximate
Fri 02:04:00 AM 55.0430 -21.1924 93° East  Level FlightAware Approximate
Fri 02:05:00 AM 55.0348 -20.9383 93° East  Level FlightAware Approximate
Fri 02:06:00 AM 55.0261 -20.6842 93° East  Level FlightAware Approximate
Fri 02:07:00 AM 55.0169 -20.4302 94° East  Level FlightAware Approximate
Fri 02:08:00 AM 55.0071 -20.1764 94° East  Level FlightAware Approximate
Fri 02:09:00 AM 54.9899 -19.9245 103° East  Level FlightAware Approximate
Fri 02:10:00 AM 54.9564 -19.6772 103° East  Level FlightAware Approximate
Fri 02:11:00 AM 54.9224 -19.4302 103° East  Level FlightAware Approximate
Fri 02:12:00 AM 54.8879 -19.1836 104° East  Level FlightAware Approximate
Fri 02:13:00 AM 54.8529 -18.9375 104° East  Level FlightAware Approximate
Fri 02:14:00 AM 54.8174 -18.6918 104° East  Level FlightAware Approximate
Fri 02:15:00 AM 54.7814 -18.4466 104° East  Level FlightAware Approximate
Fri 02:16:00 AM 54.7450 -18.2018 104° East  Level FlightAware Approximate
Fri 02:17:00 AM 54.7080 -17.9574 105° East  Level FlightAware Approximate
Fri 02:18:00 AM 54.6705 -17.7135 105° East  Level FlightAware Approximate
Fri 02:18:40 AM 54.6560 -13.4700 105° East 557 641 33,000  Level FlightAware ADS-B
Fri 02:19:00 AM 54.6326 -17.4700 105° East  Level FlightAware Approximate
Fri 02:19:20 AM 54.6100 -13.2970 115° Southeast 553 636 33,000  Level FlightAware ADS-B
Fri 02:19:55 AM 54.5710 -13.1510 115° Southeast 556 640 33,400 558 Climbing FlightAware ADS-B
Fri 02:20:46 AM 54.5220 -12.9640 114° Southeast 559 643 33,800 1,000 Climbing FlightAware ADS-B
Fri 02:21:19 AM 54.4800 -12.8090 115° Southeast 568 654 34,800 1,478 Climbing FlightAware ADS-B
Fri 02:21:55 AM 54.4410 -12.6650 115° Southeast 569 655 35,500 1,029 Climbing FlightAware ADS-B
Fri 02:22:29 AM 54.4020 -12.5230 115° Southeast 567 652 36,000 435 Climbing FlightAware ADS-B
Fri 02:23:04 AM 54.3650 -12.3890 115° Southeast 565 650 36,000  Level FlightAware ADS-B
Fri 02:23:37 AM 54.3280 -12.2520 115° Southeast 563 648 36,000  Level FlightAware ADS-B
Fri 02:24:10 AM 54.2900 -12.1200 116° Southeast 561 646 36,000  Level FlightAware ADS-B
Fri 02:24:48 AM 54.2470 -11.9640 115° Southeast 558 642 36,000  Level FlightAware ADS-B
Fri 02:25:24 AM 54.2070 -11.8220 116° Southeast 555 639 36,000  Level FlightAware ADS-B
Fri 02:26:00 AM 54.1680 -11.6840 116° Southeast 551 634 36,000  Level FlightAware ADS-B
Fri 02:26:40 AM 54.1240 -11.5290 116° Southeast 548 631 36,000  Level FlightAware ADS-B
Fri 02:27:27 AM 54.0700 -11.3430 116° Southeast 548 631 36,000  Level FlightAware ADS-B
Fri 02:28:02 AM 54.0330 -11.2170 117° Southeast 543 625 36,000  Level FlightAware ADS-B
Fri 02:28:39 AM 53.9900 -11.0670 116° Southeast 544 626 36,000  Level FlightAware ADS-B
Fri 02:29:15 AM 53.9510 -10.9300 116° Southeast 543 625 36,000  Level FlightAware ADS-B
Fri 02:29:49 AM 53.9120 -10.8000 117° Southeast 542 624 36,000  Level FlightAware ADS-B
Fri 02:30:25 AM 53.8720 -10.6640 116° Southeast 543 625 36,000  Level FlightAware ADS-B
Fri 02:31:00 AM 53.8320 -10.5310 117° Southeast 542 624 36,000  Level FlightAware ADS-B
Fri 02:31:35 AM 53.7920 -10.3950 116° Southeast 542 624 36,000  Level FlightAware ADS-B
Fri 02:32:10 AM 53.7530 -10.2670 117° Southeast 542 624 36,000  Level FlightAware ADS-B
Fri 02:32:50 AM 53.7070 -10.1160 117° Southeast 541 623 36,000  Level FlightAware ADS-B
Fri 02:33:30 AM 53.6620 -9.9660 117° Southeast 538 619 36,000  Level FlightAware ADS-B
Fri 02:34:01 AM 53.6270 -9.8500 117° Southeast 537 618 36,000  Level FlightAware ADS-B
Fri 02:34:35 AM 53.5880 -9.7270 118° Southeast 538 619 36,000  Level FlightAware ADS-B
Fri 02:35:16 AM 53.5390 -9.5670 117° Southeast 537 618 36,000  Level FlightAware ADS-B
Fri 02:35:56 AM 53.4930 -9.4220 118° Southeast 538 619 36,000  Level FlightAware ADS-B
Fri 02:36:31 AM 53.4520 -9.2880 117° Southeast 538 619 36,000  Level FlightAware ADS-B
Fri 02:37:02 AM 53.4160 -9.1770 119° Southeast 538 619 36,000  Level FlightAware ADS-B
Fri 02:37:37 AM 53.3750 -9.0440 117° Southeast 537 618 36,000  Level FlightAware ADS-B
Fri 02:38:17 AM 53.3280 -8.9000 119° Southeast 537 618 36,000  Level FlightAware ADS-B
Fri 02:38:47 AM 53.2920 -8.7860 119° Southeast 540 621 36,000 -182 Level FlightAware ADS-B
Fri 02:38:50 AM 53.2874 -8.7701 119° Southeast 490 564 35,900 -182 Descending FlightAware UK
Fri 02:39:20 AM 53.2520 -8.6598 119° Southeast 492 566 35,900 188 Level FlightAware UK
Fri 02:39:22 AM 53.2520 -8.6610 119° Southeast 541 623 36,000 162 Climbing FlightAware ADS-B
Fri 02:39:57 AM 53.2100 -8.5330 119° Southeast 540 621 36,000  Level FlightAware ADS-B
Fri 02:40:33 AM 53.1680 -8.4010 118° Southeast 540 621 36,000  Level FlightAware ADS-B
Fri 02:41:08 AM 53.1250 -8.2700 119° Southeast 539 620 36,000  Level FlightAware ADS-B
Fri 02:41:43 AM 53.0850 -8.1470 118° Southeast 537 618 36,000  Level FlightAware ADS-B
Fri 02:42:18 AM 53.0420 -8.0170 118° Southeast 536 617 36,000 -162 Level FlightAware ADS-B
Fri 02:42:20 AM 53.0375 -8.0018 118° Southeast 496 571 35,900 -188 Descending FlightAware UK
Fri 02:42:50 AM 53.0017 -7.8938 118° Southeast 496 571 35,900 176 Level FlightAware UK
Fri 02:42:54 AM 52.9980 -7.8870 118° Southeast 535 616 36,000 150 Climbing FlightAware ADS-B
Fri 02:43:30 AM 52.9550 -7.7580 119° Southeast 534 615 36,000  Level FlightAware ADS-B
Fri 02:44:06 AM 52.9120 -7.6300 119° Southeast 533 613 36,000  Level FlightAware ADS-B
Fri 02:44:41 AM 52.8700 -7.5060 119° Southeast 532 612 36,000  Level FlightAware ADS-B
Fri 02:45:13 AM 52.8310 -7.3890 119° Southeast 531 611 36,000  Level FlightAware ADS-B
Fri 02:45:49 AM 52.7890 -7.2650 119° Southeast 529 609 36,000 -162 Level FlightAware ADS-B
Fri 02:45:50 AM 52.7864 -7.2539 119° Southeast 492 566 35,900 -188 Descending FlightAware UK
Fri 02:46:21 AM 52.7501 -7.1479 119° Southeast 490 564 35,900 162 Level FlightAware UK
Fri 02:46:27 AM 52.7430 -7.1320 119° Southeast 528 608 36,000  Climbing FlightAware ADS-B
Fri 02:46:57 AM 52.7065 -7.0223 119° Southeast 488 562 35,900  Descending FlightAware UK
Fri 02:47:03 AM 52.6990 -7.0060 119° Southeast 528 608 36,000 158 Climbing FlightAware ADS-B
Fri 02:47:35 AM 52.6600 -6.8900 119° Southeast 529 609 36,000  Level FlightAware ADS-B
Fri 02:48:11 AM 52.6180 -6.7680 120° Southeast 529 609 36,000  Level FlightAware ADS-B
Fri 02:48:45 AM 52.5780 -6.6530 120° Southeast 529 609 36,000  Level FlightAware ADS-B
Fri 02:49:20 AM 52.5380 -6.5420 121° Southeast 528 608 36,000  Level FlightAware ADS-B
Fri 02:49:56 AM 52.4920 -6.4100 121° Southeast 527 606 36,000 -162 Level FlightAware ADS-B
Fri 02:49:57 AM 52.4878 -6.3955 121° Southeast 494 568 35,900 -194 Descending FlightAware UK
Fri 02:50:27 AM 52.4513 -6.2918 121° Southeast 492 566 35,900 194 Level FlightAware UK
Fri 02:50:28 AM 52.4520 -6.2960 121° Southeast 526 605 36,000 150 Climbing FlightAware ADS-B
Fri 02:51:07 AM 52.4040 -6.1620 120° Southeast 526 605 36,000  Level FlightAware ADS-B
Fri 02:51:40 AM 52.3610 -6.0420 120° Southeast 527 606 36,000  Level FlightAware ADS-B
Fri 02:52:16 AM 52.3170 -5.9190 120° Southeast 526 605 36,000  Level FlightAware ADS-B
Fri 02:52:52 AM 52.2730 -5.7990 121° Southeast 525 604 36,000  Level FlightAware ADS-B
Fri 02:53:28 AM 52.2280 -5.6760 121° Southeast 526 605 36,000  Level FlightAware ADS-B
Fri 02:54:00 AM 52.1890 -5.5670 120° Southeast 526 605 36,000  Level FlightAware ADS-B
Fri 02:54:36 AM 52.1440 -5.4450 121° Southeast 525 604 36,000  Level FlightAware ADS-B
Fri 02:55:12 AM 52.0990 -5.3200 120° Southeast 525 604 36,000  Level FlightAware ADS-B
Fri 02:55:44 AM 52.0580 -5.2110 121° Southeast 526 605 36,000 -87 Level FlightAware ADS-B
Fri 02:56:21 AM 52.0140 -5.0890 120° Southeast 526 605 35,900  Descending FlightAware ADS-B
Fri 02:56:48 AM 51.9900 -4.9860 111° Southeast 524 603 36,000 97 Climbing FlightAware ADS-B
Fri 02:57:23 AM 51.9730 -4.8560 102° East 523 602 36,000 -87 Level FlightAware ADS-B
Fri 02:57:57 AM 51.9569 -4.7191 102° East 488 562 35,900  Descending FlightAware UK
Fri 02:58:00 AM 51.9560 -4.7130 102° East 524 603 36,000 154 Climbing FlightAware ADS-B
Fri 02:58:36 AM 51.9400 -4.5740 101° East 525 604 36,000  Level FlightAware ADS-B
Fri 02:59:08 AM 51.9260 -4.4510 100° East 526 605 36,000  Level FlightAware ADS-B
Fri 02:59:46 AM 51.9090 -4.3040 101° East 526 605 36,000  Level FlightAware ADS-B
Fri 03:00:18 AM 51.8930 -4.1840 102° East 527 606 36,000  Level FlightAware ADS-B
Fri 03:00:56 AM 51.8690 -4.0320 104° East 528 608 36,000  Level FlightAware ADS-B
Fri 03:01:28 AM 51.8490 -3.9100 105° East 526 605 36,000  Level FlightAware ADS-B
Fri 03:01:51 AM 51.8366 -3.8339 105° East 527 606 36,000  Level FlightAware ADS-B
Fri 03:02:26 AM 51.8149 -3.7009 105° East 526 605 36,000  Level FlightAware ADS-B
Fri 03:03:03 AM 51.7922 -3.5607 105° East 526 605 36,000  Level FlightAware ADS-B
Fri 03:03:42 AM 51.7691 -3.4128 104° East 525 604 36,000  Level FlightAware ADS-B
Fri 03:04:13 AM 51.7510 -3.2991 104° East 525 604 36,000  Level FlightAware ADS-B
Fri 03:04:46 AM 51.7318 -3.1736 104° East 525 604 36,000 -87 Level FlightAware ADS-B
Fri 03:05:22 AM 51.7090 -3.0219 104° East 490 564 35,900  Descending FlightAware UK
Fri 03:05:35 AM 51.7026 -2.9841 104° East 526 605 36,000 128 Climbing FlightAware ADS-B
Fri 03:06:09 AM 51.6828 -2.8554 104° East 525 604 36,000  Level FlightAware ADS-B
Fri 03:06:40 AM 51.6648 -2.7378 104° East 525 604 36,000  Level FlightAware ADS-B
Fri 03:07:11 AM 51.6471 -2.6205 104° East 524 603 36,000  Level FlightAware ADS-B
Fri 03:07:42 AM 51.6298 -2.5066 104° East 524 603 36,000  Level FlightAware ADS-B
Fri 03:08:18 AM 51.6094 -2.3706 104° East 525 604 36,000  Level FlightAware ADS-B
Fri 03:08:50 AM 51.5908 -2.2497 104° East 524 603 36,000  Level FlightAware ADS-B
Fri 03:09:21 AM 51.5724 -2.1327 104° East 524 603 36,000  Level FlightAware ADS-B
Fri 03:09:51 AM 51.5598 -2.0140 100° East 525 604 36,000  Level FlightAware ADS-B
Fri 03:10:22 AM 51.5500 -1.8986 98° East 526 605 36,000  Level FlightAware ADS-B
Fri 03:10:52 AM 51.5397 -1.7828 98° East 525 604 36,000  Level FlightAware ADS-B
Fri 03:11:21 AM 51.5292 -1.6673 98° East 525 604 36,000  Level FlightAware ADS-B
Fri 03:11:52 AM 51.5198 -1.5517 97° East 525 604 36,000  Level FlightAware ADS-B
Fri 03:12:23 AM 51.5102 -1.4318 97° East 525 604 36,000  Level FlightAware ADS-B
Fri 03:12:55 AM 51.4997 -1.3043 97° East 526 605 36,000  Level FlightAware ADS-B
Fri 03:13:27 AM 51.4895 -1.1851 98° East 526 605 36,000  Level FlightAware ADS-B
Fri 03:13:57 AM 51.4791 -1.0652 98° East 526 605 36,000  Level FlightAware ADS-B
Fri 03:14:32 AM 51.4671 -0.9306 98° East 526 605 36,000  Level FlightAware ADS-B
Fri 03:15:03 AM 51.4565 -0.8150 98° East 526 605 36,000  Level FlightAware ADS-B
Fri 03:15:33 AM 51.4460 -0.6992 98° East 526 605 36,000  Level FlightAware ADS-B
Fri 03:16:04 AM 51.4352 -0.5801 98° East 527 606 36,000  Level FlightAware ADS-B
Fri 03:16:34 AM 51.4244 -0.4604 98° East 528 608 36,000  Level FlightAware ADS-B
Fri 03:17:05 AM 51.4134 -0.3411 98° East 528 608 36,000  Level FlightAware ADS-B
Fri 03:17:37 AM 51.4018 -0.2178 99° East 527 606 36,000  Level FlightAware ADS-B
Fri 03:18:10 AM 51.3899 -0.0944 99° East 528 608 36,000  Level FlightAware ADS-B
Fri 03:18:43 AM 51.3778 0.0326 99° East 527 606 36,000  Level FlightAware ADS-B
Fri 03:19:15 AM 51.3660 0.1557 99° East 527 606 36,000  Level FlightAware ADS-B
Fri 03:19:45 AM 51.3547 0.2706 99° East 527 606 36,000  Level FlightAware ADS-B
Fri 03:20:21 AM 51.3411 0.4089 99° East 527 606 36,000  Level FlightAware ADS-B
Fri 03:20:51 AM 51.3292 0.5282 99° East 527 606 36,000  Level FlightAware ADS-B
Fri 03:21:26 AM 51.3157 0.6584 99° East 526 605 36,000  Level FlightAware ADS-B
Fri 03:21:58 AM 51.3031 0.7847 99° East 525 604 36,000  Level FlightAware ADS-B
Fri 03:22:30 AM 51.2905 0.9028 100° East 524 603 36,000  Level FlightAware ADS-B
Fri 03:23:02 AM 51.2778 1.0244 99° East 523 602 36,000  Level FlightAware ADS-B
Fri 03:23:35 AM 51.2630 1.1650 99° East 521 600 36,000  Level FlightAware ADS-B
Fri 03:24:09 AM 51.2500 1.2860 100° East 520 598 36,000  Level FlightAware ADS-B
Fri 03:24:49 AM 51.2350 1.4210 100° East 519 597 36,000  Level FlightAware ADS-B
Fri 03:25:24 AM 51.2200 1.5650 99° East 519 597 36,000  Level FlightAware ADS-B
Fri 03:26:05 AM 51.2020 1.7230 100° East 521 600 36,000  Level FlightAware ADS-B
Fri 03:26:42 AM 51.1870 1.8620 100° East 520 598 36,000  Level FlightAware ADS-B
Fri 03:27:14 AM 51.1730 1.9830 100° East 520 598 36,000  Level FlightAware ADS-B
Fri 03:27:50 AM 51.1490 2.1140 106° East 519 597 36,000  Level FlightAware ADS-B
Fri 03:28:27 AM 51.1010 2.2380 122° Southeast 522 601 36,000  Level FlightAware ADS-B
Fri 03:28:55 AM 51.0810 2.3430 107° East 521 600 36,000  Level FlightAware ADS-B
Fri 03:29:26 AM 51.0630 2.4580 104° East 520 598 36,000  Level FlightAware ADS-B
Fri 03:30:03 AM 51.0410 2.5880 105° East 520 598 36,000  Level FlightAware ADS-B
Fri 03:30:38 AM 51.0240 2.7260 101° East 520 598 36,000 -86 Level FlightAware ADS-B
Fri 03:31:13 AM 51.0080 2.8587 101° East 488 562 35,900  Descending FlightAware UK
Fri 03:31:15 AM 51.0070 2.8640 101° East 521 600 36,000 162 Climbing FlightAware ADS-B
Fri 03:31:50 AM 50.9920 2.9920 100° East 520 598 36,000  Level FlightAware ADS-B
Fri 03:32:20 AM 50.9780 3.1080 101° East 520 598 36,000 -92 Level FlightAware ADS-B
Fri 03:32:55 AM 50.9623 3.2420 101° East 490 564 35,900  Descending FlightAware UK
Fri 03:32:58 AM 50.9610 3.2470 101° East 521 600 36,000 150 Climbing FlightAware ADS-B
Fri 03:33:35 AM 50.9440 3.3850 101° East 519 597 36,000  Level FlightAware ADS-B
Fri 03:34:07 AM 50.9300 3.5040 101° East 518 596 36,000  Level FlightAware ADS-B
Fri 03:34:42 AM 50.9140 3.6270 102° East 518 596 36,000  Level FlightAware ADS-B
Fri 03:35:07 AM 50.9010 3.7310 101° East 518 596 36,000  Level FlightAware ADS-B
Fri 03:35:48 AM 50.8810 3.8790 102° East 517 595 36,000  Level FlightAware ADS-B
Fri 03:36:21 AM 50.8610 4.0000 105° East 516 594 36,000  Level FlightAware ADS-B
Fri 03:36:54 AM 50.8420 4.1170 104° East 517 595 36,000 -94 Level FlightAware ADS-B
Fri 03:37:25 AM 50.8229 4.2404 104° East 486 559 35,900  Descending FlightAware UK
Fri 03:37:32 AM 50.8200 4.2600 104° East 517 595 36,000 136 Climbing FlightAware ADS-B
Fri 03:38:09 AM 50.7990 4.3920 104° East 518 596 36,000  Level FlightAware ADS-B
Fri 03:38:39 AM 50.7810 4.5020 104° East 518 596 36,000  Level FlightAware ADS-B
Fri 03:39:14 AM 50.7600 4.6370 104° East 518 596 36,000  Level FlightAware ADS-B
Fri 03:39:47 AM 50.7410 4.7540 104° East 518 596 36,000  Level FlightAware ADS-B
Fri 03:40:28 AM 50.7170 4.9010 104° East 519 597 36,000  Level FlightAware ADS-B
Fri 03:41:00 AM 50.6970 5.0220 105° East 519 597 36,000  Level FlightAware ADS-B
Fri 03:41:37 AM 50.6750 5.1570 104° East 519 597 36,000  Level FlightAware ADS-B
Fri 03:42:11 AM 50.6550 5.2780 105° East 520 598 36,000  Level FlightAware ADS-B
Fri 03:42:46 AM 50.6340 5.4060 104° East 520 598 36,000  Level FlightAware ADS-B
Fri 03:43:23 AM 50.6110 5.5410 105° East 521 600 36,000  Level FlightAware ADS-B
Fri 03:43:56 AM 50.5910 5.6580 105° East 521 600 36,000  Level FlightAware ADS-B
Fri 03:44:30 AM 50.5690 5.7900 105° East 521 600 36,000 -82 Level FlightAware ADS-B
Fri 03:45:09 AM 50.5430 5.9360 106° East 521 600 35,900  Descending FlightAware ADS-B
Fri 03:45:40 AM 50.5240 6.0450 105° East 520 598 36,000 94 Climbing FlightAware ADS-B
Fri 03:46:13 AM 50.5030 6.1650 105° East 520 598 36,000  Level FlightAware ADS-B
Fri 03:46:53 AM 50.4770 6.3140 105° East 520 598 36,000  Level FlightAware ADS-B
Fri 03:47:26 AM 50.4560 6.4300 106° East 520 598 36,000  Level FlightAware ADS-B
Fri 03:48:01 AM 50.4340 6.5540 106° East 520 598 36,000  Level FlightAware ADS-B
Fri 03:48:37 AM 50.4100 6.6910 105° East 519 597 36,000  Level FlightAware ADS-B
Fri 03:49:10 AM 50.3860 6.8020 109° East 523 602 36,000  Level FlightAware ADS-B
Fri 03:49:44 AM 50.3450 6.9200 119° Southeast 529 609 36,000  Level FlightAware ADS-B
Fri 03:50:22 AM 50.2860 7.0320 129° Southeast 535 616 36,000  Level FlightAware ADS-B
Fri 03:50:58 AM 50.2210 7.1240 138° Southeast 535 616 36,000  Level FlightAware ADS-B
Fri 03:51:31 AM 50.1600 7.2130 137° Southeast 534 615 36,000  Level FlightAware ADS-B
Fri 03:52:06 AM 50.0990 7.3020 137° Southeast 533 613 36,000  Level FlightAware ADS-B
Fri 03:52:43 AM 50.0300 7.4040 136° Southeast 531 611 36,000  Level FlightAware ADS-B
Fri 03:53:16 AM 49.9710 7.4850 139° Southeast 530 610 36,000  Level FlightAware ADS-B
Fri 03:53:49 AM 49.9110 7.5640 140° Southeast 530 610 36,000  Level FlightAware ADS-B
Fri 03:54:26 AM 49.8420 7.6570 139° Southeast 531 611 36,000  Level FlightAware ADS-B
Fri 03:55:16 AM 49.7500 7.7820 139° Southeast 532 612 36,000  Level FlightAware ADS-B
Fri 03:55:51 AM 49.6860 7.8690 139° Southeast 532 612 36,000  Level FlightAware ADS-B
Fri 03:56:31 AM 49.6160 7.9620 139° Southeast 535 616 36,000  Level FlightAware ADS-B
Fri 03:57:06 AM 49.5440 8.0590 139° Southeast 535 616 36,000  Level FlightAware ADS-B
Fri 03:57:46 AM 49.4700 8.1560 140° Southeast 533 613 36,000  Level FlightAware ADS-B
Fri 03:58:26 AM 49.3950 8.2550 139° Southeast 533 613 36,000  Level FlightAware ADS-B
Fri 03:58:56 AM 49.3440 8.3230 139° Southeast 533 613 36,000  Level FlightAware ADS-B
Fri 03:59:34 AM 49.2660 8.4270 139° Southeast 532 612 36,000  Level FlightAware ADS-B
Fri 04:00:10 AM 49.2020 8.5090 140° Southeast 531 611 36,000  Level FlightAware ADS-B
Fri 04:00:40 AM 49.1430 8.5870 139° Southeast 529 609 36,000 364 Level FlightAware ADS-B
Fri 04:01:16 AM 49.0720 8.6670 144° Southeast 531 611 36,400 822 Climbing FlightAware ADS-B
Fri 04:01:53 AM 48.9950 8.7380 149° Southeast 532 612 37,000 514 Climbing FlightAware ADS-B
Fri 04:02:26 AM 48.9290 8.8010 148° Southeast 531 611 37,000  Level FlightAware ADS-B
Fri 04:03:07 AM 48.8440 8.8840 147° Southeast 530 610 37,000  Level FlightAware ADS-B
Fri 04:03:39 AM 48.7750 8.9530 147° Southeast 529 609 37,000  Level FlightAware ADS-B
Fri 04:04:15 AM 48.7020 9.0240 147° Southeast 529 609 37,000  Level FlightAware ADS-B
Fri 04:04:51 AM 48.6320 9.0950 146° Southeast 529 609 37,000  Level FlightAware ADS-B
Fri 04:05:23 AM 48.5650 9.1590 148° Southeast 530 610 37,000  Level FlightAware ADS-B
Fri 04:05:58 AM 48.4900 9.2340 146° Southeast 531 611 37,000  Level FlightAware ADS-B
Fri 04:06:35 AM 48.4150 9.3060 147° Southeast 532 612 37,000  Level FlightAware ADS-B
Fri 04:07:12 AM 48.3380 9.3810 147° Southeast 533 613 37,000 -87 Level FlightAware ADS-B
Fri 04:07:44 AM 48.2720 9.4460 147° Southeast 534 615 36,900  Descending FlightAware ADS-B
Fri 04:08:20 AM 48.2040 9.5260 142° Southeast 537 618 37,000 83 Climbing FlightAware ADS-B
Fri 04:08:56 AM 48.1350 9.6160 139° Southeast 538 619 37,000  Level FlightAware ADS-B
Fri 04:09:32 AM 48.0670 9.7030 139° Southeast 537 618 37,000  Level FlightAware ADS-B
Fri 04:10:03 AM 48.0110 9.7760 139° Southeast 537 618 37,000  Level FlightAware ADS-B
Fri 04:10:38 AM 47.9440 9.8630 139° Southeast 536 617 37,000  Level FlightAware ADS-B
Fri 04:11:03 AM 47.8950 9.9260 139° Southeast 537 618 37,000  Level FlightAware ADS-B
Fri 04:11:52 AM 47.7990 10.0290 144° Southeast 536 617 37,000  Level FlightAware ADS-B
Fri 04:12:29 AM 47.7210 10.0980 149° Southeast 536 617 37,000  Level FlightAware ADS-B
Fri 04:13:05 AM 47.6510 10.1610 149° Southeast 536 617 37,000  Level FlightAware ADS-B
Fri 04:13:36 AM 47.5800 10.2270 148° Southeast 537 618 37,000  Level FlightAware ADS-B
Fri 04:14:12 AM 47.5040 10.2970 148° Southeast 538 619 37,000  Level FlightAware ADS-B
Fri 04:14:49 AM 47.4220 10.3740 148° Southeast 539 620 37,000 -82 Level FlightAware ADS-B
Fri 04:15:25 AM 47.3500 10.4410 148° Southeast 537 618 36,900  Descending FlightAware ADS-B
Fri 04:15:57 AM 47.2810 10.5050 148° Southeast 536 617 37,000 94 Climbing FlightAware ADS-B
Fri 04:16:29 AM 47.2130 10.5670 148° Southeast 536 617 37,000  Level FlightAware ADS-B
Fri 04:17:10 AM 47.1270 10.6420 149° Southeast 530 610 37,000  Level FlightAware ADS-B
Fri 04:17:41 AM 47.0620 10.6920 152° Southeast 531 611 37,000  Level FlightAware ADS-B
Fri 04:18:18 AM 46.9780 10.7530 154° Southeast 534 615 37,000  Level FlightAware ADS-B
Fri 04:18:54 AM 46.8990 10.8090 154° Southeast 535 616 37,000 -90 Level FlightAware ADS-B
Fri 04:19:25 AM 46.8300 10.8580 154° Southeast 534 615 36,900  Descending FlightAware ADS-B
Fri 04:19:57 AM 46.7590 10.9080 154° Southeast 534 615 37,000 81 Climbing FlightAware ADS-B
Fri 04:20:39 AM 46.6680 10.9720 154° Southeast 532 612 37,000 -78 Level FlightAware ADS-B
Fri 04:21:14 AM 46.5870 11.0270 155° Southeast 529 609 36,900  Descending FlightAware ADS-B
Fri 04:21:47 AM 46.5160 11.0770 154° Southeast 527 606 37,000 87 Climbing FlightAware ADS-B
Fri 04:22:23 AM 46.4360 11.1320 155° Southeast 527 606 37,000  Level FlightAware ADS-B
Fri 04:22:58 AM 46.3550 11.1890 154° Southeast 528 608 37,000  Level FlightAware ADS-B
Fri 04:23:33 AM 46.2790 11.2400 155° Southeast 526 605 37,000  Level FlightAware ADS-B
Fri 04:24:07 AM 46.2050 11.2910 154° Southeast 523 602 37,000  Level FlightAware ADS-B
Fri 04:24:44 AM 46.1240 11.3470 154° Southeast 523 602 37,000  Level FlightAware ADS-B
Fri 04:25:20 AM 46.0450 11.4000 155° Southeast 524 603 37,000  Level FlightAware ADS-B
Fri 04:25:51 AM 45.9760 11.4480 154° Southeast 524 603 37,000  Level FlightAware ADS-B
Fri 04:26:28 AM 45.8980 11.5000 155° Southeast 525 604 37,000  Level FlightAware ADS-B
Fri 04:27:03 AM 45.8190 11.5530 155° Southeast 525 604 37,000  Level FlightAware ADS-B
Fri 04:27:38 AM 45.7430 11.6050 154° Southeast 522 601 37,000 -95 Level FlightAware ADS-B
Fri 04:28:06 AM 45.6850 11.6550 149° Southeast 531 611 36,900  Descending FlightAware ADS-B
Fri 04:28:39 AM 45.6310 11.7330 135° Southeast 535 616 37,000  Climbing FlightAware ADS-B
Fri 04:28:56 AM 45.6070 11.7880 122° Southeast 548 631 36,900  Descending FlightAware ADS-B
Fri 04:29:29 AM 45.5710 11.8990 115° Southeast 546 628 37,000 88 Climbing FlightAware ADS-B
Fri 04:30:04 AM 45.5350 12.0100 115° Southeast 543 625 37,000  Level FlightAware ADS-B
Fri 04:30:40 AM 45.4970 12.1300 114° Southeast 543 625 37,000  Level FlightAware ADS-B
Fri 04:31:13 AM 45.4590 12.2350 117° Southeast 540 621 37,000  Level FlightAware ADS-B
Fri 04:31:49 AM 45.4130 12.3480 120° Southeast 539 620 37,000  Level FlightAware ADS-B
Fri 04:32:24 AM 45.3660 12.4530 122° Southeast 539 620 37,000  Level FlightAware ADS-B
Fri 04:32:55 AM 45.3250 12.5430 123° Southeast 539 620 37,000  Level FlightAware ADS-B
Fri 04:33:32 AM 45.2780 12.6500 122° Southeast 540 621 37,000  Level FlightAware ADS-B
Fri 04:34:08 AM 45.2280 12.7570 124° Southeast 540 621 37,000  Level FlightAware ADS-B
Fri 04:34:45 AM 45.1770 12.8660 124° Southeast 539 620 37,000  Level FlightAware ADS-B
Fri 04:35:17 AM 45.1410 12.9460 123° Southeast 539 620 37,000  Level FlightAware ADS-B
Fri 04:35:55 AM 45.0810 13.0760 123° Southeast 539 620 37,000  Level FlightAware ADS-B
Fri 04:36:30 AM 45.0340 13.1760 124° Southeast 540 621 37,000  Level FlightAware ADS-B
Fri 04:37:09 AM 44.9860 13.2830 122° Southeast 540 621 37,000  Level FlightAware ADS-B
Fri 04:37:40 AM 44.9550 13.3550 121° Southeast 540 621 37,000  Level FlightAware ADS-B
Fri 04:38:17 AM 44.9020 13.4740 122° Southeast 540 621 37,000  Level FlightAware ADS-B
Fri 04:38:57 AM 44.8470 13.5960 122° Southeast 539 620 37,000  Level FlightAware ADS-B
Fri 04:39:38 AM 44.7830 13.7380 122° Southeast 538 619 37,000  Level FlightAware ADS-B
Fri 04:40:13 AM 44.7360 13.8410 123° Southeast 537 618 37,000  Level FlightAware ADS-B
Fri 04:40:47 AM 44.6900 13.9410 123° Southeast 537 618 37,000  Level FlightAware ADS-B
Fri 04:41:23 AM 44.6430 14.0440 123° Southeast 536 617 37,000  Level FlightAware ADS-B
Fri 04:41:58 AM 44.5990 14.1400 123° Southeast 534 615 37,000  Level FlightAware ADS-B
Fri 04:42:48 AM 44.5350 14.2790 123° Southeast 531 611 37,000  Level FlightAware ADS-B
Fri 04:43:24 AM 44.4810 14.3940 123° Southeast 530 610 37,000  Level FlightAware ADS-B
Fri 04:43:55 AM 44.4390 14.4860 123° Southeast 529 609 37,000  Level FlightAware ADS-B
Fri 04:44:34 AM 44.3890 14.5920 123° Southeast 528 608 37,000  Level FlightAware ADS-B
Fri 04:45:05 AM 44.3500 14.6750 123° Southeast 527 606 37,000  Level FlightAware ADS-B
Fri 04:45:41 AM 44.3010 14.7800 123° Southeast 525 604 37,000  Level FlightAware ADS-B
Fri 04:46:16 AM 44.2530 14.8820 123° Southeast 525 604 37,000  Level FlightAware ADS-B
Fri 04:46:52 AM 44.2080 14.9780 123° Southeast 525 604 37,000  Level FlightAware ADS-B
Fri 04:47:26 AM 44.1570 15.0850 124° Southeast 525 604 37,000  Level FlightAware ADS-B
Fri 04:48:01 AM 44.1120 15.1780 124° Southeast 525 604 37,000  Level FlightAware ADS-B
Fri 04:48:37 AM 44.0630 15.2820 123° Southeast 524 603 37,000  Level FlightAware ADS-B
Fri 04:49:12 AM 44.0160 15.3800 124° Southeast 523 602 37,000  Level FlightAware ADS-B
Fri 04:49:47 AM 43.9690 15.4780 124° Southeast 524 603 37,000  Level FlightAware ADS-B
Fri 04:50:18 AM 43.9300 15.5580 124° Southeast 524 603 37,000  Level FlightAware ADS-B
Fri 04:50:59 AM 43.8710 15.6780 124° Southeast 524 603 37,000  Level FlightAware ADS-B
Fri 04:51:34 AM 43.8240 15.7760 124° Southeast 523 602 37,000  Level FlightAware ADS-B
Fri 04:52:04 AM 43.7830 15.8620 123° Southeast 523 602 37,000  Level FlightAware ADS-B
Fri 04:52:44 AM 43.7290 15.9700 125° Southeast 523 602 37,000  Level FlightAware ADS-B
Fri 04:53:24 AM 43.6770 16.0750 124° Southeast 524 603 37,000  Level FlightAware ADS-B
Fri 04:53:57 AM 43.6300 16.1720 124° Southeast 523 602 37,000  Level FlightAware ADS-B
Fri 04:54:32 AM 43.5820 16.2710 124° Southeast 522 601 37,000  Level FlightAware ADS-B
Fri 04:55:12 AM 43.5270 16.3810 125° Southeast 517 595 37,000  Level FlightAware ADS-B
Fri 04:55:43 AM 43.4850 16.4660 124° Southeast 517 595 37,000  Level FlightAware ADS-B
Fri 04:56:18 AM 43.4380 16.5590 125° Southeast 517 595 37,000  Level FlightAware ADS-B
Fri 04:56:54 AM 43.3900 16.6570 124° Southeast 520 598 37,000  Level FlightAware ADS-B
Fri 04:57:28 AM 43.3420 16.7490 126° Southeast 518 596 37,000  Level FlightAware ADS-B
Fri 04:58:03 AM 43.2940 16.8460 124° Southeast 512 589 37,000  Level FlightAware ADS-B
Fri 04:58:39 AM 43.2460 16.9410 125° Southeast 515 593 37,000  Level FlightAware ADS-B
Fri 04:59:14 AM 43.1980 17.0340 125° Southeast 515 593 37,000  Level FlightAware ADS-B
Fri 04:59:54 AM 43.1440 17.1410 125° Southeast 514 592 37,000  Level FlightAware ADS-B
Fri 05:00:29 AM 43.0960 17.2340 125° Southeast 513 590 37,000  Level FlightAware ADS-B
Fri 05:01:04 AM 43.0480 17.3270 125° Southeast 508 585 37,000  Level FlightAware ADS-B
Fri 05:01:44 AM 42.9940 17.4330 125° Southeast 512 589 37,000  Level FlightAware ADS-B
Fri 05:02:14 AM 42.9530 17.5150 124° Southeast 511 588 37,000  Level FlightAware ADS-B
Fri 05:02:49 AM 42.9050 17.6070 125° Southeast 511 588 37,000  Level FlightAware ADS-B
Fri 05:03:29 AM 42.8510 17.7090 126° Southeast 506 582 37,000  Level FlightAware ADS-B
Fri 05:03:59 AM 42.8120 17.7860 125° Southeast 506 582 37,000  Level FlightAware ADS-B
Fri 05:04:34 AM 42.7630 17.8800 125° Southeast 506 582 37,000  Level FlightAware ADS-B
Fri 05:05:14 AM 42.7080 17.9850 125° Southeast 506 582 37,000  Level FlightAware ADS-B
Fri 05:05:44 AM 42.6660 18.0630 126° Southeast 507 583 37,000  Level FlightAware ADS-B
Fri 05:06:19 AM 42.6180 18.1540 126° Southeast 506 582 37,000  Level FlightAware ADS-B
Fri 05:06:59 AM 42.5620 18.2580 126° Southeast 509 586 37,000  Level FlightAware ADS-B
Fri 05:07:29 AM 42.5190 18.3240 131° Southeast 501 577 37,000  Level FlightAware ADS-B
Fri 05:08:09 AM 42.4510 18.4160 135° Southeast 499 574 37,000  Level FlightAware ADS-B
Fri 05:08:39 AM 42.4050 18.4750 137° Southeast 499 574 37,000  Level FlightAware ADS-B
Fri 05:09:17 AM 42.3330 18.5730 135° Southeast 504 580 37,000  Level FlightAware ADS-B
Fri 05:09:53 AM 42.2730 18.6530 135° Southeast 505 581 37,000  Level FlightAware ADS-B
Fri 05:10:29 AM 42.2160 18.7310 135° Southeast 504 580 37,000  Level FlightAware ADS-B
Fri 05:11:03 AM 42.1580 18.8060 136° Southeast 504 580 37,000  Level FlightAware ADS-B
Fri 05:11:37 AM 42.1010 18.8830 135° Southeast 503 579 37,000  Level FlightAware ADS-B
Fri 05:12:13 AM 42.0420 18.9600 136° Southeast 504 580 37,000  Level FlightAware ADS-B
Fri 05:12:47 AM 41.9850 19.0350 136° Southeast 504 580 37,000  Level FlightAware ADS-B
Fri 05:13:23 AM 41.9260 19.1170 134° Southeast 505 581 37,000  Level FlightAware ADS-B
Fri 05:13:59 AM 41.8660 19.1940 136° Southeast 504 580 37,000  Level FlightAware ADS-B
Fri 05:14:35 AM 41.8060 19.2720 136° Southeast 504 580 37,000  Level FlightAware ADS-B
Fri 05:15:07 AM 41.7550 19.3360 137° Southeast 502 578 37,000  Level FlightAware ADS-B
Fri 05:15:43 AM 41.6870 19.4140 139° Southeast 500 575 37,000  Level FlightAware ADS-B
Fri 05:16:19 AM 41.6240 19.4840 140° Southeast 501 577 37,000  Level FlightAware ADS-B
Fri 05:16:51 AM 41.5680 19.5480 139° Southeast 501 577 37,000  Level FlightAware ADS-B
Fri 05:17:33 AM 41.4940 19.6300 140° Southeast 501 577 37,000  Level FlightAware ADS-B
Fri 05:18:11 AM 41.4270 19.7080 139° Southeast 500 575 37,000  Level FlightAware ADS-B
Fri 05:18:43 AM 41.3710 19.7780 137° Southeast 502 578 37,000  Level FlightAware ADS-B
Fri 05:19:19 AM 41.3120 19.8570 135° Southeast 502 578 37,000  Level FlightAware ADS-B
Fri 05:19:55 AM 41.2550 19.9340 135° Southeast 502 578 37,000  Level FlightAware ADS-B
Fri 05:20:31 AM 41.1980 20.0120 134° Southeast 504 580 37,000  Level FlightAware ADS-B
Fri 05:21:03 AM 41.1400 20.0790 139° Southeast 502 578 37,000  Level FlightAware ADS-B
Fri 05:21:41 AM 41.0690 20.1440 145° Southeast 501 577 37,000  Level FlightAware ADS-B
Fri 05:22:17 AM 40.9990 20.2090 145° Southeast 501 577 37,000  Level FlightAware ADS-B
Fri 05:22:49 AM 40.9410 20.2640 144° Southeast 502 578 37,000  Level FlightAware ADS-B
Fri 05:23:33 AM 40.8540 20.3430 146° Southeast 501 577 37,000  Level FlightAware ADS-B
Fri 05:24:09 AM 40.7900 20.4020 145° Southeast 500 575 37,000  Level FlightAware ADS-B
Fri 05:24:47 AM 40.7160 20.4700 145° Southeast 501 577 37,000  Level FlightAware ADS-B
Fri 05:25:24 AM 40.6410 20.5380 145° Southeast 501 577 37,000  Level FlightAware ADS-B
Fri 05:25:46 AM 40.6020 20.5800 141° Southeast 502 578 37,000  Level FlightAware ADS-B
Fri 05:26:22 AM 40.5450 20.6520 136° Southeast 503 579 37,000  Level FlightAware ADS-B
Fri 05:26:54 AM 40.4890 20.7220 136° Southeast 503 579 37,000  Level FlightAware ADS-B
Fri 05:27:30 AM 40.4280 20.8000 136° Southeast 502 578 37,000  Level FlightAware ADS-B
Fri 05:28:04 AM 40.3700 20.8710 137° Southeast 502 578 37,000  Level FlightAware ADS-B
Fri 05:28:42 AM 40.3090 20.9500 135° Southeast 500 575 37,000  Level FlightAware ADS-B
Fri 05:29:14 AM 40.2560 21.0180 136° Southeast 499 574 37,000  Level FlightAware ADS-B
Fri 05:29:50 AM 40.1950 21.0970 135° Southeast 498 573 37,000  Level FlightAware ADS-B
Fri 05:30:27 AM 40.1360 21.1730 135° Southeast 497 572 37,000  Level FlightAware ADS-B
Fri 05:30:58 AM 40.0860 21.2350 136° Southeast 497 572 37,000  Level FlightAware ADS-B
Fri 05:31:34 AM 40.0260 21.3130 135° Southeast 496 571 37,000  Level FlightAware ADS-B
Fri 05:32:11 AM 39.9650 21.3900 136° Southeast 495 570 37,000  Level FlightAware ADS-B
Fri 05:32:46 AM 39.9070 21.4630 136° Southeast 496 571 37,000  Level FlightAware ADS-B
Fri 05:33:22 AM 39.8470 21.5380 136° Southeast 496 571 37,000  Level FlightAware ADS-B
Fri 05:33:54 AM 39.7940 21.6040 136° Southeast 497 572 37,000  Level FlightAware ADS-B
Fri 05:34:30 AM 39.7360 21.6790 135° Southeast 497 572 37,000  Level FlightAware ADS-B
Fri 05:35:06 AM 39.6740 21.7560 136° Southeast 498 573 37,000  Level FlightAware ADS-B
Fri 05:35:42 AM 39.6160 21.8290 136° Southeast 498 573 37,000  Level FlightAware ADS-B
Fri 05:36:14 AM 39.5620 21.8950 137° Southeast 497 572 37,000  Level FlightAware ADS-B
Fri 05:36:51 AM 39.5010 21.9720 136° Southeast 498 573 37,000  Level FlightAware ADS-B
Fri 05:37:26 AM 39.4430 22.0440 136° Southeast 500 575 37,000  Level FlightAware ADS-B
Fri 05:38:02 AM 39.3830 22.1190 136° Southeast 499 574 37,000  Level FlightAware ADS-B
Fri 05:38:34 AM 39.3300 22.1850 136° Southeast 500 575 37,000  Level FlightAware ADS-B
Fri 05:39:10 AM 39.2690 22.2590 137° Southeast 500 575 37,000  Level FlightAware ADS-B
Fri 05:39:48 AM 39.2040 22.3390 136° Southeast 500 575 37,000  Level FlightAware ADS-B
Fri 05:40:20 AM 39.1520 22.4030 136° Southeast 500 575 37,000  Level FlightAware ADS-B
Fri 05:40:55 AM 39.0940 22.4750 136° Southeast 498 573 37,000  Level FlightAware ADS-B
Fri 05:41:29 AM 39.0370 22.5440 137° Southeast 497 572 37,000  Level FlightAware ADS-B
Fri 05:42:07 AM 38.9750 22.6200 136° Southeast 497 572 37,000  Level FlightAware ADS-B
Fri 05:42:39 AM 38.9190 22.6880 137° Southeast 495 570 37,000 -90 Level FlightAware ADS-B
Fri 05:43:14 AM 38.8610 22.7570 137° Southeast 495 570 36,900  Descending FlightAware ADS-B
Fri 05:43:51 AM 38.8010 22.8320 136° Southeast 495 570 37,000 81 Climbing FlightAware ADS-B
Fri 05:44:28 AM 38.7400 22.9060 137° Southeast 495 570 37,000  Level FlightAware ADS-B
Fri 05:45:05 AM 38.6770 22.9810 137° Southeast 495 570 37,000  Level FlightAware ADS-B
Fri 05:45:35 AM 38.6270 23.0410 137° Southeast 495 570 37,000  Level FlightAware ADS-B
Fri 05:46:11 AM 38.5660 23.1130 137° Southeast 497 572 37,000  Level FlightAware ADS-B
Fri 05:46:49 AM 38.5030 23.1890 137° Southeast 498 573 37,000  Level FlightAware ADS-B
Fri 05:47:21 AM 38.4490 23.2540 137° Southeast 498 573 37,000  Level FlightAware ADS-B
Fri 05:47:56 AM 38.3900 23.3240 137° Southeast 498 573 37,000  Level FlightAware ADS-B
Fri 05:48:33 AM 38.3270 23.3980 137° Southeast 496 571 37,000  Level FlightAware ADS-B
Fri 05:49:05 AM 38.2720 23.4640 137° Southeast 497 572 37,000  Level FlightAware ADS-B
Fri 05:49:40 AM 38.2140 23.5330 137° Southeast 497 572 37,000  Level FlightAware ADS-B
Fri 05:50:15 AM 38.1560 23.6010 137° Southeast 497 572 37,000  Level FlightAware ADS-B
Fri 05:50:54 AM 38.0910 23.6770 137° Southeast 499 574 37,000  Level FlightAware ADS-B
Fri 05:51:26 AM 38.0340 23.7450 137° Southeast 501 577 37,000  Level FlightAware ADS-B
Fri 05:52:01 AM 37.9760 23.8140 137° Southeast 507 583 37,000  Level FlightAware ADS-B
Fri 05:52:37 AM 37.9220 23.8970 129° Southeast 520 598 37,000  Level FlightAware ADS-B
Fri 05:53:11 AM 37.8780 23.9850 122° Southeast 525 604 37,000  Level FlightAware ADS-B
Fri 05:53:47 AM 37.8350 24.0810 120° Southeast 524 603 37,000  Level FlightAware ADS-B
Fri 05:54:22 AM 37.7930 24.1740 120° Southeast 524 603 37,000  Level FlightAware ADS-B
Fri 05:54:59 AM 37.7480 24.2750 119° Southeast 524 603 37,000  Level FlightAware ADS-B
Fri 05:55:31 AM 37.7080 24.3590 121° Southeast 523 602 37,000  Level FlightAware ADS-B
Fri 05:56:06 AM 37.6660 24.4490 121° Southeast 521 600 37,000  Level FlightAware ADS-B
Fri 05:56:43 AM 37.6200 24.5450 121° Southeast 521 600 37,000  Level FlightAware ADS-B
Fri 05:57:15 AM 37.5780 24.6310 122° Southeast 521 600 37,000  Level FlightAware ADS-B
Fri 05:57:52 AM 37.5330 24.7260 121° Southeast 521 600 37,000 333 Level FlightAware ADS-B
Fri 05:58:27 AM 37.4890 24.8150 122° Southeast 521 600 37,400 930 Climbing FlightAware ADS-B
Fri 05:59:03 AM 37.4440 24.9110 121° Southeast 521 600 38,100 1,217 Climbing FlightAware ADS-B
Fri 05:59:36 AM 37.4020 24.9960 122° Southeast 519 597 38,800 794 Climbing FlightAware ADS-B
Fri 06:00:11 AM 37.3590 25.0830 122° Southeast 520 598 39,000 167 Climbing FlightAware ADS-B
Fri 06:00:48 AM 37.3120 25.1810 121° Southeast 520 598 39,000  Level FlightAware ADS-B
Fri 06:01:24 AM 37.2660 25.2730 122° Southeast 519 597 39,000  Level FlightAware ADS-B
Fri 06:01:54 AM 37.2300 25.3480 121° Southeast 518 596 39,000  Level FlightAware ADS-B
Fri 06:02:32 AM 37.1810 25.4470 122° Southeast 518 596 39,000  Level FlightAware ADS-B
Fri 06:03:09 AM 37.1350 25.5390 122° Southeast 517 595 39,000  Level FlightAware ADS-B
Fri 06:03:41 AM 37.0940 25.6210 122° Southeast 517 595 39,000  Level FlightAware ADS-B
Fri 06:04:18 AM 37.0480 25.7150 121° Southeast 518 596 39,000  Level FlightAware ADS-B
Fri 06:04:49 AM 37.0100 25.7910 122° Southeast 517 595 39,000  Level FlightAware ADS-B
Fri 06:05:27 AM 36.9610 25.8880 122° Southeast 519 597 39,000  Level FlightAware ADS-B
Fri 06:06:03 AM 36.9150 25.9820 121° Southeast 518 596 39,000  Level FlightAware ADS-B
Fri 06:06:38 AM 36.8690 26.0730 122° Southeast 520 598 39,000  Level FlightAware ADS-B
Fri 06:07:10 AM 36.8290 26.1520 122° Southeast 521 600 39,000  Level FlightAware ADS-B
Fri 06:07:46 AM 36.7820 26.2440 123° Southeast 523 602 39,000  Level FlightAware ADS-B
Fri 06:08:22 AM 36.7370 26.3360 121° Southeast 524 603 39,000  Level FlightAware ADS-B
Fri 06:08:56 AM 36.6910 26.4250 123° Southeast 524 603 39,000  Level FlightAware ADS-B
Fri 06:09:32 AM 36.6450 26.5150 122° Southeast 524 603 39,000  Level FlightAware ADS-B
Fri 06:10:08 AM 36.6000 26.6040 122° Southeast 525 604 39,000  Level FlightAware ADS-B
Fri 06:10:40 AM 36.5570 26.6880 122° Southeast 525 604 39,000  Level FlightAware ADS-B
Fri 06:11:06 AM 36.5220 26.7570 122° Southeast 525 604 39,000  Level FlightAware ADS-B
Fri 06:11:56 AM 36.4570 26.8820 123° Southeast 526 605 39,000  Level FlightAware ADS-B
Fri 06:12:32 AM 36.4100 26.9730 123° Southeast 527 606 39,000  Level FlightAware ADS-B
Fri 06:13:06 AM 36.3730 27.0480 121° Southeast 527 606 39,000  Level FlightAware ADS-B
Fri 06:13:43 AM 36.3320 27.1290 122° Southeast 527 606 39,000  Level FlightAware ADS-B
Fri 06:14:19 AM 36.2920 27.2070 122° Southeast 527 606 39,000  Level FlightAware ADS-B
Fri 06:14:55 AM 36.2530 27.2860 121° Southeast 527 606 39,000  Level FlightAware ADS-B
Fri 06:15:31 AM 36.2130 27.3640 122° Southeast 527 606 39,000  Level FlightAware ADS-B
Fri 06:16:07 AM 36.1740 27.4430 121° Southeast 527 606 39,000  Level FlightAware ADS-B
Fri 06:16:44 AM 36.1330 27.5230 122° Southeast 527 606 39,000  Level FlightAware ADS-B
Fri 06:17:23 AM 36.0230 27.7150 125° Southeast 531 611 39,000  Level FlightAware ADS-B
Fri 06:17:59 AM 35.9760 27.8040 123° Southeast 531 611 39,000  Level FlightAware ADS-B
Fri 06:18:30 AM 35.9350 27.8810 123° Southeast 533 613 39,000  Level FlightAware ADS-B
Fri 06:19:07 AM 35.8840 27.9770 123° Southeast 533 613 39,000  Level FlightAware ADS-B
Fri 06:19:43 AM 35.8340 28.0710 123° Southeast 534 615 39,000  Level FlightAware ADS-B
Fri 06:20:18 AM 35.7880 28.1580 123° Southeast 534 615 39,000  Level FlightAware ADS-B
Fri 06:20:51 AM 35.7430 28.2420 123° Southeast 533 613 39,000  Level FlightAware ADS-B
Fri 06:21:27 AM 35.6940 28.3330 124° Southeast 531 611 39,000  Level FlightAware ADS-B
Fri 06:22:03 AM 35.6460 28.4230 123° Southeast 531 611 39,000  Level FlightAware ADS-B
Fri 06:22:35 AM 35.6020 28.5040 124° Southeast 531 611 39,000  Level FlightAware ADS-B
Fri 06:23:07 AM 35.5580 28.5870 123° Southeast 531 611 39,000  Level FlightAware ADS-B
Fri 06:23:46 AM 35.5060 28.6820 124° Southeast 531 611 39,000  Level FlightAware ADS-B
Fri 06:24:21 AM 35.4580 28.7700 124° Southeast 530 610 39,000  Level FlightAware ADS-B
Fri 06:24:57 AM 35.4080 28.8630 123° Southeast 531 611 39,000  Level FlightAware ADS-B
Fri 06:25:33 AM 35.3590 28.9500 125° Southeast 531 611 39,000  Level FlightAware ADS-B
Fri 06:26:05 AM 35.3160 29.0300 123° Southeast 531 611 39,000  Level FlightAware ADS-B
Fri 06:26:41 AM 35.2670 29.1200 124° Southeast 531 611 39,000  Level FlightAware ADS-B
Fri 06:27:18 AM 35.2160 29.2120 124° Southeast 531 611 39,000  Level FlightAware ADS-B
Fri 06:28:06 AM 35.1500 29.3310 124° Southeast 526 605 39,000  Level FlightAware ADS-B
Fri 06:28:41 AM 35.1020 29.4180 124° Southeast 530 610 39,000  Level FlightAware ADS-B
Fri 06:29:13 AM 35.0570 29.5000 124° Southeast 530 610 39,000  Level FlightAware ADS-B
Fri 06:29:55 AM 35.0050 29.5940 124° Southeast 530 610 39,000  Level FlightAware ADS-B
Fri 06:30:27 AM 34.9570 29.6780 125° Southeast 527 606 39,000  Level FlightAware ADS-B
Fri 06:31:07 AM 34.9020 29.7770 124° Southeast 527 606 39,000  Level FlightAware ADS-B
Fri 06:31:42 AM 34.8540 29.8640 124° Southeast 527 606 39,000  Level FlightAware ADS-B
Fri 06:32:12 AM 34.8110 29.9380 125° Southeast 526 605 39,000  Level FlightAware ADS-B
Fri 06:32:49 AM 34.7620 30.0260 124° Southeast 525 604 39,000  Level FlightAware ADS-B
Fri 06:33:27 AM 34.7100 30.1240 123° Southeast 527 606 39,000  Level FlightAware ADS-B
Fri 06:34:03 AM 34.6640 30.2150 122° Southeast 526 605 39,000  Level FlightAware ADS-B
Fri 06:34:38 AM 34.6200 30.2990 122° Southeast 526 605 39,000  Level FlightAware ADS-B
Fri 06:35:09 AM 34.5770 30.3820 122° Southeast 527 606 39,000  Level FlightAware ADS-B
Fri 06:35:44 AM 34.5310 30.4690 123° Southeast 526 605 39,000  Level FlightAware ADS-B
Fri 06:36:23 AM 34.4830 30.5600 123° Southeast 525 604 39,000  Level FlightAware ADS-B
Fri 06:37:00 AM 34.4310 30.6570 123° Southeast 524 603 39,000  Level FlightAware ADS-B
Fri 06:37:31 AM 34.3920 30.7310 123° Southeast 523 602 39,000  Level FlightAware ADS-B
Fri 06:38:06 AM 34.3450 30.8210 122° Southeast 524 603 39,000  Level FlightAware ADS-B
Fri 06:38:42 AM 34.2960 30.9100 124° Southeast 523 602 39,000  Level FlightAware ADS-B
Fri 06:39:17 AM 34.2490 30.9990 123° Southeast 523 602 39,000  Level FlightAware ADS-B
Fri 06:39:52 AM 34.2030 31.0860 123° Southeast 523 602 39,000  Level FlightAware ADS-B
Fri 06:40:27 AM 34.1560 31.1730 123° Southeast 523 602 39,000  Level FlightAware ADS-B
Fri 06:41:08 AM 34.1020 31.2740 123° Southeast 522 601 39,000  Level FlightAware ADS-B
Fri 06:41:43 AM 34.0550 31.3620 123° Southeast 521 600 39,000  Level FlightAware ADS-B
Fri 06:42:18 AM 34.0090 31.4460 123° Southeast 526 605 39,000  Level FlightAware ADS-B
Fri 06:42:54 AM 33.9640 31.5290 123° Southeast 527 606 39,000  Level FlightAware ADS-B
Fri 06:43:29 AM 33.9150 31.6200 123° Southeast 528 608 39,000  Level FlightAware ADS-B
Fri 06:44:04 AM 33.8680 31.7060 123° Southeast 529 609 39,000  Level FlightAware ADS-B
Fri 06:44:40 AM 33.8200 31.7950 123° Southeast 530 610 39,000  Level FlightAware ADS-B
Fri 06:45:15 AM 33.7730 31.8790 124° Southeast 530 610 39,000  Level FlightAware ADS-B
Fri 06:45:56 AM 33.7180 31.9820 123° Southeast 531 611 39,000  Level FlightAware ADS-B
Fri 06:46:31 AM 33.6700 32.0680 124° Southeast 531 611 39,000  Level FlightAware ADS-B
Fri 06:47:08 AM 33.6190 32.1590 124° Southeast 529 609 39,000  Level FlightAware ADS-B
Fri 06:47:39 AM 33.5790 32.2320 123° Southeast 528 608 39,000 -179 Level FlightAware ADS-B
Fri 06:48:15 AM 33.5290 32.3230 123° Southeast 526 605 38,800 -730 Descending FlightAware ADS-B
Fri 06:48:53 AM 33.4820 32.4070 124° Southeast 526 605 38,100 -1,286 Descending FlightAware ADS-B
Fri 06:49:25 AM 33.4380 32.4880 123° Southeast 533 613 37,300 -1,500 Descending FlightAware ADS-B
Fri 06:50:01 AM 33.3880 32.5770 124° Southeast 537 618 36,400 -1,417 Descending FlightAware ADS-B
Fri 06:50:37 AM 33.3380 32.6650 124° Southeast 533 613 35,600 -1,622 Descending FlightAware ADS-B
Fri 06:51:15 AM 33.2890 32.7530 124° Southeast 526 605 34,400 -2,118 Descending FlightAware ADS-B
Fri 06:51:45 AM 33.2490 32.8250 124° Southeast 522 601 33,200 -2,382 Descending FlightAware ADS-B
Fri 06:52:23 AM 33.1970 32.9170 124° Southeast 518 596 31,700 -2,514 Descending FlightAware ADS-B
Fri 06:52:59 AM 33.1440 33.0130 123° Southeast 506 582 30,100 -2,435 Descending FlightAware ADS-B
Fri 06:53:32 AM 33.1040 33.0820 125° Southeast 499 574 28,900 -2,273 Descending FlightAware ADS-B
Fri 06:54:05 AM 33.0590 33.1630 124° Southeast 489 563 27,600 -2,442 Descending FlightAware ADS-B
Fri 06:54:58 AM 32.9910 33.2800 125° Southeast 477 549 25,400 -2,258 Descending FlightAware ADS-B
Fri 06:55:38 AM 32.9440 33.3540 127° Southeast 459 528 24,100 -2,227 Descending FlightAware ADS-B
Fri 06:56:35 AM 32.9030 33.4150 129° Southeast 450 518 21,800 -2,494 Descending FlightAware ADS-B
Fri 06:57:07 AM 32.8280 33.5330 127° Southeast 440 506 20,400 -2,382 Descending FlightAware ADS-B
Fri 06:57:43 AM 32.7830 33.6040 127° Southeast 430 495 19,100 -2,167 Descending FlightAware ADS-B
Fri 06:58:19 AM 32.7410 33.6710 127° Southeast 420 483 17,800 -2,108 Descending FlightAware ADS-B
Fri 06:58:57 AM 32.6960 33.7400 128° Southeast 409 471 16,500 -2,113 Descending FlightAware ADS-B
Fri 06:59:30 AM 32.6580 33.8000 127° Southeast 399 459 15,300 -1,971 Descending FlightAware ADS-B
Fri 07:00:07 AM 32.6200 33.8600 127° Southeast 389 448 14,200 -1,948 Descending FlightAware ADS-B
Fri 07:00:47 AM 32.5740 33.9290 128° Southeast 379 436 12,800 -2,026 Descending FlightAware ADS-B
Fri 07:01:24 AM 32.5350 33.9910 127° Southeast 370 426 11,600 -1,500 Descending FlightAware ADS-B
Fri 07:01:59 AM 32.4990 34.0450 128° Southeast 364 419 11,000 -923 Descending FlightAware ADS-B
Fri 07:02:29 AM 32.4690 34.0920 127° Southeast 355 409 10,600 -706 Descending FlightAware ADS-B
Fri 07:03:07 AM 32.4330 34.1490 127° Southeast 328 377 10,200 -405 Descending FlightAware ADS-B
Fri 07:03:43 AM 32.4010 34.1980 128° Southeast 293 337 10,100 -411 Descending FlightAware ADS-B
Fri 07:04:20 AM 32.3810 34.2290 127° Southeast 290 334 9,700 -764 Descending FlightAware ADS-B
Fri 07:04:38 AM 32.3560 34.2680 127° Southeast 288 331 9,400 -1,077 Descending FlightAware ADS-B
Fri 07:04:59 AM 32.3390 34.2930 129° Southeast 287 330 9,000 -1,347 Descending FlightAware ADS-B
Fri 07:05:27 AM 32.3160 34.3290 127° Southeast 283 326 8,300 -1,375 Descending FlightAware ADS-B
Fri 07:05:47 AM 32.3010 34.3520 128° Southeast 281 323 7,900 -1,227 Descending FlightAware ADS-B
Fri 07:06:11 AM 32.2860 34.3750 128° Southeast 279 321 7,400 -1,256 Descending FlightAware ADS-B
Fri 07:06:30 AM 32.2700 34.3990 128° Southeast 277 319 7,000 -1,385 Descending FlightAware ADS-B
Fri 07:06:50 AM 32.2530 34.4250 128° Southeast 275 316 6,500 -1,286 Descending FlightAware ADS-B
Fri 07:07:12 AM 32.2380 34.4490 126° Southeast 273 314 6,100 -1,091 Descending FlightAware ADS-B
Fri 07:07:34 AM 32.2210 34.4790 124° Southeast 272 313 5,700 -1,116 Descending FlightAware ADS-B
Fri 07:07:55 AM 32.2070 34.5050 122° Southeast 270 311 5,300 -537 Descending FlightAware ADS-B
Fri 07:08:41 AM 32.1820 34.5540 121° Southeast 269 310 5,100 -171 Descending FlightAware ADS-B
Fri 07:09:05 AM 32.1630 34.5900 122° Southeast 263 303 5,100  Level FlightAware ADS-B
Fri 07:09:30 AM 32.1460 34.6230 121° Southeast 265 305 5,100  Level FlightAware ADS-B
Fri 07:09:55 AM 32.1290 34.6520 125° Southeast 264 304 5,100  Level FlightAware ADS-B
Fri 07:10:15 AM 32.1160 34.6760 123° Southeast 266 306 5,100  Level FlightAware ADS-B
Fri 07:10:35 AM 32.1040 34.6980 123° Southeast 265 305 5,100  Level FlightAware ADS-B
Fri 07:11:30 AM 32.0670 34.7640 123° Southeast 233 268 5,100 -75 Level FlightAware ADS-B
Fri 07:11:55 AM 32.0510 34.7860 131° Southeast 225 259 5,000 -667 Descending FlightAware ADS-B
Fri 07:12:15 AM 32.0380 34.8010 136° Southeast 224 258 4,600 -533 Descending FlightAware ADS-B
Fri 07:12:40 AM 32.0220 34.8200 135° Southeast 224 258 4,600  Level FlightAware ADS-B
Fri 07:13:00 AM 32.0030 34.8400 138° Southeast 229 264 4,600  Level FlightAware ADS-B
Fri 07:13:28 AM 31.9850 34.8600 137° Southeast 229 264 4,600 -1,200 Level FlightAware ADS-B
Fri 07:14:05 AM 32.0030 34.8400 317° Northwest 214 246 3,300 -2,000 Descending FlightAware ADS-B
Fri 07:14:10 AM 31.9750 34.9040 117° Southeast 191 220 3,200 -1,200 Descending FlightAware ADS-B
Fri 07:14:35 AM 31.9800 34.9260 75° East 181 208 2,700 -1,333 Descending FlightAware ADS-B
Fri 07:14:55 AM 31.9850 34.9460 74° East 191 220 2,200 -1,200 Descending FlightAware ADS-B
Fri 07:15:10 AM 31.9910 34.9580 59° Northeast 188 216 2,000 -1,200 Descending FlightAware ADS-B
Fri 07:15:15 AM 31.9960 34.9620 34° Northeast 184 212 1,800 -1,200 Descending FlightAware ADS-B
Fri 07:15:30 AM 32.0090 34.9630 North 168 193 1,600 -800 Descending FlightAware ADS-B
Fri 07:15:45 AM 32.0180 34.9600 344° North 159 183 1,400 -300 Descending FlightAware ADS-B
Fri 07:16:10 AM 32.0330 34.9540 341° North 159 183 1,400  Level FlightAware ADS-B
Fri 07:18:00 AM 32.0095 34.8769 250° West  Level Estimated

Login

Don't have an account? Register now (free) for customized features, flight alerts, and more!